Observation data for Umbarger on 08/20/2019      Previous  Date       Current Mesonet Observations  Soil Data  Daily Summary Page  Observations in Plain Language
KUM1 200500Z 14008KT 26/11 A301 RMK A01 T02640113  RH  039%=      5-min Rain = 0
KUM1 200501Z 14008KT 26/11 A301 RMK A01 T02630113  RH  039%=      5-min Rain = 0
KUM1 200502Z 15008KT 26/11 A301 RMK A01 T02640114  RH  039%=      5-min Rain = 0
KUM1 200503Z 15008KT 26/11 A301 RMK A01 T02640114  RH  039%=      5-min Rain = 0
KUM1 200504Z 15007KT 27/11 A301 RMK A01 T02650114  RH  039%=      5-min Rain = 0
KUM1 200505Z 15007KT 27/11 A301 RMK A01 T02650114  RH  039%=      5-min Rain = 0
KUM1 200506Z 15007KT 26/11 A301 RMK A01 T02640114  RH  039%=      5-min Rain = 0
KUM1 200507Z 16007KT 26/11 A301 RMK A01 T02640114  RH  039%=      5-min Rain = 0
KUM1 200508Z 16007KT 26/11 A301 RMK A01 T02640114  RH  039%=      5-min Rain = 0
KUM1 200509Z 16007KT 26/11 A301 RMK A01 T02640114  RH  039%=      5-min Rain = 0
KUM1 200510Z 16007KT 26/11 A301 RMK A01 T02640114  RH  039%=      5-min Rain = 0
KUM1 200511Z 16007KT 26/12 A301 RMK A01 T02640115  RH  039%=      5-min Rain = 0
KUM1 200512Z 16008KT 26/12 A301 RMK A01 T02640115  RH  039%=      5-min Rain = 0
KUM1 200513Z 16008KT 27/12 A301 RMK A01 T02650115  RH  039%=      5-min Rain = 0
KUM1 200514Z 16008KT 27/12 A301 RMK A01 T02650115  RH  039%=      5-min Rain = 0
KUM1 200515Z 16007KT 27/12 A301 RMK A01 T02650115  RH  039%=      5-min Rain = 0
KUM1 200516Z 16008KT 27/12 A301 RMK A01 T02650115  RH  039%=      5-min Rain = 0
KUM1 200517Z 16008KT 27/12 A301 RMK A01 T02660116  RH  039%=      5-min Rain = 0
KUM1 200518Z 16008KT 27/12 A301 RMK A01 T02650115  RH  039%=      5-min Rain = 0
KUM1 200519Z 16008KT 27/12 A301 RMK A01 T02650116  RH  039%=      5-min Rain = 0
KUM1 200520Z 16008KT 27/12 A301 RMK A01 T02660116  RH  039%=      5-min Rain = 0
KUM1 200521Z 16008KT 27/12 A301 RMK A01 T02650116  RH  039%=      5-min Rain = 0
KUM1 200522Z 16008KT 27/12 A301 RMK A01 T02660116  RH  039%=      5-min Rain = 0
KUM1 200523Z 16008KT 27/12 A301 RMK A01 T02660116  RH  039%=      5-min Rain = 0
KUM1 200524Z 16008KT 27/12 A301 RMK A01 T02660116  RH  039%=      5-min Rain = 0
KUM1 200525Z 16008KT 27/12 A301 RMK A01 T02660116  RH  039%=      5-min Rain = 0
KUM1 200526Z 16008KT 27/12 A301 RMK A01 T02670117  RH  039%=      5-min Rain = 0
KUM1 200527Z 16008KT 27/12 A301 RMK A01 T02670117  RH  039%=      5-min Rain = 0
KUM1 200528Z 16009KT 27/12 A301 RMK A01 T02660117  RH  039%=      5-min Rain = 0
KUM1 200529Z 17009KT 27/12 A301 RMK A01 T02670117  RH  039%=      5-min Rain = 0
KUM1 200530Z 17009KT 27/12 A301 RMK A01 T02680118  RH  039%=      5-min Rain = 0
KUM1 200531Z 17008KT 27/12 A301 RMK A01 T02690118  RH  039%=      5-min Rain = 0
KUM1 200532Z 17008KT 27/12 A301 RMK A01 T02700119  RH  039%=      5-min Rain = 0
KUM1 200533Z 17009KT 27/12 A301 RMK A01 T02700119  RH  039%=      5-min Rain = 0
KUM1 200534Z 17009KT 27/12 A301 RMK A01 T02710120  RH  039%=      5-min Rain = 0
KUM1 200535Z 17009KT 27/12 A301 RMK A01 T02730121  RH  039%=      5-min Rain = 0
KUM1 200536Z 17008KT 27/12 A301 RMK A01 T02730121  RH  039%=      5-min Rain = 0
KUM1 200537Z 17008KT 27/12 A3011 RMK A01 T02740121  RH  039%=      5-min Rain = 0
KUM1 200538Z 18008KT 27/12 A3011 RMK A01 T02740121  RH  039%=      5-min Rain = 0
KUM1 200539Z 18009KT 27/12 A3011 RMK A01 T02740121  RH  039%=      5-min Rain = 0
KUM1 200540Z 18008KT 27/12 A301 RMK A01 T02740121  RH  039%=      5-min Rain = 0
KUM1 200541Z 18008KT 27/12 A301 RMK A01 T02740121  RH  039%=      5-min Rain = 0
KUM1 200542Z 18009KT 28/12 A301 RMK A01 T02750122  RH  039%=      5-min Rain = 0
KUM1 200543Z 17008KT 28/12 A301 RMK A01 T02750122  RH  039%=      5-min Rain = 0
KUM1 200544Z 18009KT 28/12 A301 RMK A01 T02760124  RH  039%=      5-min Rain = 0
KUM1 200545Z 17009KT 28/12 A301 RMK A01 T02770124  RH  039%=      5-min Rain = 0
KUM1 200546Z 17009KT 28/13 A301 RMK A01 T02780125  RH  039%=      5-min Rain = 0
KUM1 200547Z 17008KT 28/13 A301 RMK A01 T02790125  RH  039%=      5-min Rain = 0
KUM1 200548Z 17009KT 28/13 A301 RMK A01 T02790125  RH  039%=      5-min Rain = 0
KUM1 200549Z 17009KT 28/13 A301 RMK A01 T02790126  RH  039%=      5-min Rain = 0
KUM1 200550Z 17010KT 28/13 A301 RMK A01 T02790126  RH  039%=      5-min Rain = 0
KUM1 200551Z 17009KT 28/13 A3011 RMK A01 T02800128  RH  039%=      5-min Rain = 0
KUM1 200552Z 17009KT 28/13 A3011 RMK A01 T02810128  RH  039%=      5-min Rain = 0
KUM1 200553Z 17011KT 28/13 A3011 RMK A01 T02820129  RH  039%=      5-min Rain = 0
KUM1 200554Z 17010KT 28/13 A3011 RMK A01 T02820131  RH  039%=      5-min Rain = 0
KUM1 200555Z 17012KT 28/13 A3011 RMK A01 T02840132  RH  039%=      5-min Rain = 0
KUM1 200556Z 17011KT 29/13 A3011 RMK A01 T02850133  RH  039%=      5-min Rain = 0
KUM1 200557Z 17012KT 29/14 A3011 RMK A01 T02870135  RH  039%=      5-min Rain = 0
KUM1 200558Z 17012KT 29/14 A3011 RMK A01 T02880135  RH  039%=      5-min Rain = 0
KUM1 200559Z 17010KT 29/14 A3011 RMK A01 T02880135  RH  039%=      5-min Rain = 0
KUM1 200600Z 17011KT 29/14 A3011 RMK A01 T02890136  RH  039%=      5-min Rain = 0
KUM1 200601Z 17011KT 29/14 A3011 RMK A01 T02890137  RH  039%=      5-min Rain = 0
KUM1 200602Z 17011KT 29/14 A3011 RMK A01 T02890137  RH  039%=      5-min Rain = 0
KUM1 200603Z 17011KT 29/14 A3011 RMK A01 T02890137  RH  039%=      5-min Rain = 0
KUM1 200604Z 17012KT 29/14 A3011 RMK A01 T02890137  RH  039%=      5-min Rain = 0
KUM1 200605Z 17011KT 29/14 A3011 RMK A01 T02890137  RH  039%=      5-min Rain = 0
KUM1 200606Z 17010KT 29/14 A3011 RMK A01 T02880137  RH  039%=      5-min Rain = 0
KUM1 200607Z 17010KT 29/14 A3011 RMK A01 T02880137  RH  040%=      5-min Rain = 0
KUM1 200608Z 17010KT 29/14 A3011 RMK A01 T02880137  RH  040%=      5-min Rain = 0
KUM1 200609Z 17011KT 29/14 A3011 RMK A01 T02880138  RH  040%=      5-min Rain = 0
KUM1 200610Z 17009KT 29/14 A3011 RMK A01 T02880138  RH  040%=      5-min Rain = 0
KUM1 200611Z 17010KT 29/14 A3011 RMK A01 T02870138  RH  040%=      5-min Rain = 0
KUM1 200612Z 17011KT 29/14 A3011 RMK A01 T02870138  RH  040%=      5-min Rain = 0
KUM1 200613Z 17011KT 29/14 A3011 RMK A01 T02870138  RH  040%=      5-min Rain = 0
KUM1 200614Z 17010KT 29/14 A3011 RMK A01 T02870139  RH  040%=      5-min Rain = 0
KUM1 200615Z 17010KT 29/14 A3011 RMK A01 T02870139  RH  040%=      5-min Rain = 0
KUM1 200616Z 17010KT 29/14 A3011 RMK A01 T02870139  RH  040%=      5-min Rain = 0
KUM1 200617Z 17010KT 29/14 A3011 RMK A01 T02860139  RH  040%=      5-min Rain = 0
KUM1 200618Z 17010KT 29/14 A3011 RMK A01 T02860139  RH  041%=      5-min Rain = 0
KUM1 200619Z 17010KT 29/14 A3011 RMK A01 T02850139  RH  041%=      5-min Rain = 0
KUM1 200620Z 17011KT 29/14 A3011 RMK A01 T02850139  RH  041%=      5-min Rain = 0
KUM1 200621Z 17011KT 29/14 A3011 RMK A01 T02850140  RH  041%=      5-min Rain = 0
KUM1 200622Z 17010KT 29/14 A3011 RMK A01 T02850140  RH  041%=      5-min Rain = 0
KUM1 200623Z 17009KT 29/14 A3011 RMK A01 T02850140  RH  041%=      5-min Rain = 0
KUM1 200624Z 17009KT 29/14 A3011 RMK A01 T02850140  RH  041%=      5-min Rain = 0
KUM1 200625Z 16010KT 28/14 A3011 RMK A01 T02840139  RH  041%=      5-min Rain = 0
KUM1 200626Z 17010KT 28/14 A3011 RMK A01 T02840140  RH  041%=      5-min Rain = 0
KUM1 200627Z 16010KT 28/14 A3011 RMK A01 T02840140  RH  041%=      5-min Rain = 0
KUM1 200628Z 16009KT 28/14 A3011 RMK A01 T02830140  RH  041%=      5-min Rain = 0
KUM1 200629Z 17009KT 28/14 A3011 RMK A01 T02820139  RH  042%=      5-min Rain = 0
KUM1 200630Z 16010KT 28/14 A3011 RMK A01 T02820140  RH  042%=      5-min Rain = 0
KUM1 200631Z 17009KT 28/14 A3011 RMK A01 T02810140  RH  042%=      5-min Rain = 0
KUM1 200632Z 17009KT 28/14 A3011 RMK A01 T02810140  RH  042%=      5-min Rain = 0
KUM1 200633Z 17009KT 28/14 A3011 RMK A01 T02810140  RH  042%=      5-min Rain = 0
KUM1 200634Z 17009KT 28/14 A3011 RMK A01 T02810140  RH  042%=      5-min Rain = 0
KUM1 200635Z 17008KT 28/14 A3011 RMK A01 T02810140  RH  042%=      5-min Rain = 0
KUM1 200636Z 17009KT 28/14 A3011 RMK A01 T02810140  RH  042%=      5-min Rain = 0
KUM1 200637Z 17010KT 28/14 A3011 RMK A01 T02800139  RH  042%=      5-min Rain = 0
KUM1 200638Z 17008KT 28/14 A3011 RMK A01 T02800139  RH  042%=      5-min Rain = 0
KUM1 200639Z 17008KT 28/14 A3011 RMK A01 T02810139  RH  042%=      5-min Rain = 0
KUM1 200640Z 17008KT 28/14 A3011 RMK A01 T02800139  RH  042%=      5-min Rain = 0
KUM1 200641Z 16008KT 28/14 A3011 RMK A01 T02800140  RH  042%=      5-min Rain = 0
KUM1 200642Z 16008KT 28/14 A3011 RMK A01 T02790139  RH  042%=      5-min Rain = 0
KUM1 200643Z 16008KT 28/14 A3011 RMK A01 T02780139  RH  043%=      5-min Rain = 0
KUM1 200644Z 16008KT 28/14 A3011 RMK A01 T02770139  RH  043%=      5-min Rain = 0
KUM1 200645Z 16008KT 28/14 A3011 RMK A01 T02770139  RH  043%=      5-min Rain = 0
KUM1 200646Z 16008KT 28/14 A3011 RMK A01 T02760139  RH  043%=      5-min Rain = 0
KUM1 200647Z 17008KT 28/14 A3011 RMK A01 T02760140  RH  043%=      5-min Rain = 0
KUM1 200648Z 17008KT 28/14 A3011 RMK A01 T02760140  RH  043%=      5-min Rain = 0
KUM1 200649Z 17008KT 28/14 A3011 RMK A01 T02760140  RH  043%=      5-min Rain = 0
KUM1 200650Z 17008KT 28/14 A3011 RMK A01 T02750140  RH  043%=      5-min Rain = 0
KUM1 200651Z 17008KT 28/14 A3011 RMK A01 T02750139  RH  043%=      5-min Rain = 0
KUM1 200652Z 17008KT 28/14 A3011 RMK A01 T02750139  RH  043%=      5-min Rain = 0
KUM1 200653Z 17008KT 28/14 A3011 RMK A01 T02750139  RH  043%=      5-min Rain = 0
KUM1 200654Z 17008KT 28/14 A3011 RMK A01 T02750139  RH  043%=      5-min Rain = 0
KUM1 200655Z 18008KT 28/14 A3011 RMK A01 T02750139  RH  043%=      5-min Rain = 0
KUM1 200656Z 17009KT 28/14 A3011 RMK A01 T02760139  RH  043%=      5-min Rain = 0
KUM1 200657Z 18008KT 28/14 A3011 RMK A01 T02760139  RH  043%=      5-min Rain = 0
KUM1 200658Z 18008KT 28/14 A3011 RMK A01 T02760139  RH  043%=      5-min Rain = 0
KUM1 200659Z 17008KT 28/14 A3011 RMK A01 T02760139  RH  043%=      5-min Rain = 0
KUM1 200700Z 18008KT 28/14 A3011 RMK A01 T02760139  RH  043%=      5-min Rain = 0
KUM1 200701Z 18007KT 28/14 A3011 RMK A01 T02770139  RH  043%=      5-min Rain = 0
KUM1 200702Z 18008KT 28/14 A3011 RMK A01 T02770139  RH  043%=      5-min Rain = 0
KUM1 200703Z 18007KT 28/14 A3011 RMK A01 T02770139  RH  043%=      5-min Rain = 0
KUM1 200704Z 18007KT 28/14 A3011 RMK A01 T02770139  RH  043%=      5-min Rain = 0
KUM1 200705Z 18007KT 28/14 A3011 RMK A01 T02760139  RH  043%=      5-min Rain = 0
KUM1 200706Z 18008KT 28/14 A3011 RMK A01 T02760139  RH  043%=      5-min Rain = 0
KUM1 200707Z 18008KT 28/14 A3011 RMK A01 T02760139  RH  043%=      5-min Rain = 0
KUM1 200708Z 18008KT 28/14 A3011 RMK A01 T02760139  RH  043%=      5-min Rain = 0
KUM1 200709Z 18006KT 28/14 A3011 RMK A01 T02760139  RH  043%=      5-min Rain = 0
KUM1 200710Z 18008KT 28/14 A3011 RMK A01 T02760139  RH  043%=      5-min Rain = 0
KUM1 200711Z 18009KT 28/14 A3011 RMK A01 T02770140  RH  043%=      5-min Rain = 0
KUM1 200712Z 18008KT 28/14 A3011 RMK A01 T02780140  RH  043%=      5-min Rain = 0
KUM1 200713Z 18009KT 28/14 A3011 RMK A01 T02780140  RH  043%=      5-min Rain = 0
KUM1 200714Z 18009KT 28/14 A3011 RMK A01 T02780140  RH  043%=      5-min Rain = 0
KUM1 200715Z 18009KT 28/14 A3011 RMK A01 T02780140  RH  043%=      5-min Rain = 0
KUM1 200716Z 18009KT 28/14 A3011 RMK A01 T02780140  RH  043%=      5-min Rain = 0
KUM1 200717Z 18008KT 28/14 A3011 RMK A01 T02780140  RH  043%=      5-min Rain = 0
KUM1 200718Z 18007KT 28/14 A3011 RMK A01 T02780140  RH  043%=      5-min Rain = 0
KUM1 200719Z 18009KT 28/14 A3011 RMK A01 T02780140  RH  043%=      5-min Rain = 0
KUM1 200720Z 18009KT 28/14 A3011 RMK A01 T02780140  RH  043%=      5-min Rain = 0
KUM1 200721Z 18009KT 28/14 A3011 RMK A01 T02780140  RH  043%=      5-min Rain = 0
KUM1 200722Z 18009KT 28/14 A3011 RMK A01 T02780140  RH  043%=      5-min Rain = 0
KUM1 200723Z 18007KT 28/14 A3011 RMK A01 T02770140  RH  043%=      5-min Rain = 0
KUM1 200724Z 18007KT 28/14 A3011 RMK A01 T02770140  RH  043%=      5-min Rain = 0
KUM1 200725Z 18008KT 28/14 A3011 RMK A01 T02760140  RH  043%=      5-min Rain = 0
KUM1 200726Z 18008KT 28/14 A3011 RMK A01 T02760140  RH  043%=      5-min Rain = 0
KUM1 200727Z 18008KT 28/14 A3011 RMK A01 T02760140  RH  043%=      5-min Rain = 0
KUM1 200728Z 18009KT 28/14 A3011 RMK A01 T02760140  RH  043%=      5-min Rain = 0
KUM1 200729Z 18009KT 28/14 A3011 RMK A01 T02760141  RH  044%=      5-min Rain = 0
KUM1 200730Z 19009KT 28/14 A3011 RMK A01 T02750141  RH  044%=      5-min Rain = 0
KUM1 200731Z 18010KT 28/14 A3011 RMK A01 T02760141  RH  044%=      5-min Rain = 0
KUM1 200732Z 19008KT 28/14 A3011 RMK A01 T02760141  RH  044%=      5-min Rain = 0
KUM1 200733Z 18009KT 28/14 A3011 RMK A01 T02760141  RH  044%=      5-min Rain = 0
KUM1 200734Z 18009KT 28/14 A3011 RMK A01 T02760141  RH  044%=      5-min Rain = 0
KUM1 200735Z 18009KT 28/14 A3011 RMK A01 T02760141  RH  044%=      5-min Rain = 0
KUM1 200736Z 19009KT 28/14 A3011 RMK A01 T02760142  RH  044%=      5-min Rain = 0
KUM1 200737Z 19010KT 28/14 A3011 RMK A01 T02760142  RH  044%=      5-min Rain = 0
KUM1 200738Z 19010KT 28/14 A3011 RMK A01 T02760142  RH  044%=      5-min Rain = 0
KUM1 200739Z 19009KT 28/14 A3011 RMK A01 T02760142  RH  044%=      5-min Rain = 0
KUM1 200740Z 19009KT 28/14 A3011 RMK A01 T02760142  RH  044%=      5-min Rain = 0
KUM1 200741Z 19009KT 28/14 A3011 RMK A01 T02760142  RH  044%=      5-min Rain = 0
KUM1 200742Z 19009KT 28/14 A3011 RMK A01 T02760142  RH  044%=      5-min Rain = 0
KUM1 200743Z 19010KT 28/14 A3011 RMK A01 T02760143  RH  044%=      5-min Rain = 0
KUM1 200744Z 19008KT 28/14 A3011 RMK A01 T02750143  RH  044%=      5-min Rain = 0
KUM1 200745Z 19009KT 28/14 A3011 RMK A01 T02750142  RH  044%=      5-min Rain = 0
KUM1 200746Z 19009KT 27/14 A3011 RMK A01 T02740142  RH  044%=      5-min Rain = 0
KUM1 200747Z 19009KT 27/14 A3011 RMK A01 T02740142  RH  044%=      5-min Rain = 0
KUM1 200748Z 19010KT 27/14 A3011 RMK A01 T02740143  RH  044%=      5-min Rain = 0
KUM1 200749Z 20009KT 27/14 A3011 RMK A01 T02740143  RH  045%=      5-min Rain = 0
KUM1 200750Z 19010KT 27/14 A3012 RMK A01 T02740143  RH  045%=      5-min Rain = 0
KUM1 200751Z 19011KT 27/14 A3011 RMK A01 T02740143  RH  045%=      5-min Rain = 0
KUM1 200752Z 19009KT 27/14 A3011 RMK A01 T02740143  RH  045%=      5-min Rain = 0
KUM1 200753Z 19010KT 27/14 A3012 RMK A01 T02740143  RH  045%=      5-min Rain = 0
KUM1 200754Z 19010KT 27/14 A3012 RMK A01 T02740143  RH  045%=      5-min Rain = 0
KUM1 200755Z 19010KT 27/14 A3012 RMK A01 T02740143  RH  045%=      5-min Rain = 0
KUM1 200756Z 19009KT 27/14 A3012 RMK A01 T02740143  RH  045%=      5-min Rain = 0
KUM1 200757Z 19011KT 27/14 A3012 RMK A01 T02730143  RH  045%=      5-min Rain = 0
KUM1 200758Z 19009KT 27/14 A3012 RMK A01 T02730143  RH  045%=      5-min Rain = 0
KUM1 200759Z 19011KT 27/14 A3012 RMK A01 T02730143  RH  045%=      5-min Rain = 0
KUM1 200800Z 19010KT 27/14 A3012 RMK A01 T02730144  RH  045%=      5-min Rain = 0
KUM1 200801Z 19010KT 27/14 A3012 RMK A01 T02730144  RH  045%=      5-min Rain = 0
KUM1 200802Z 20009KT 27/14 A3012 RMK A01 T02730144  RH  045%=      5-min Rain = 0
KUM1 200803Z 19009KT 27/14 A3012 RMK A01 T02730144  RH  045%=      5-min Rain = 0
KUM1 200804Z 19011KT 27/15 A3012 RMK A01 T02730145  RH  045%=      5-min Rain = 0
KUM1 200805Z 20010KT 27/15 A3012 RMK A01 T02720145  RH  045%=      5-min Rain = 0
KUM1 200806Z 20010KT 27/14 A3012 RMK A01 T02720144  RH  045%=      5-min Rain = 0
KUM1 200807Z 20010KT 27/14 A3012 RMK A01 T02720144  RH  046%=      5-min Rain = 0
KUM1 200808Z 20011KT 27/14 A3012 RMK A01 T02720144  RH  046%=      5-min Rain = 0
KUM1 200809Z 20012KT 27/14 A3012 RMK A01 T02720144  RH  046%=      5-min Rain = 0
KUM1 200810Z 20011KT 27/15 A3012 RMK A01 T02720145  RH  046%=      5-min Rain = 0
KUM1 200811Z 20013KT 27/15 A3012 RMK A01 T02720145  RH  046%=      5-min Rain = 0
KUM1 200812Z 20012KT 27/15 A3012 RMK A01 T02720145  RH  046%=      5-min Rain = 0
KUM1 200813Z 20011KT 27/15 A3012 RMK A01 T02720145  RH  046%=      5-min Rain = 0
KUM1 200814Z 20012KT 27/15 A3012 RMK A01 T02720145  RH  046%=      5-min Rain = 0
KUM1 200815Z 20012KT 27/15 A3012 RMK A01 T02720145  RH  046%=      5-min Rain = 0
KUM1 200816Z 20012KT 27/15 A3012 RMK A01 T02720145  RH  046%=      5-min Rain = 0
KUM1 200817Z 20011KT 27/15 A3012 RMK A01 T02710145  RH  046%=      5-min Rain = 0
KUM1 200818Z 20010KT 27/15 A3012 RMK A01 T02710145  RH  046%=      5-min Rain = 0
KUM1 200819Z 20011KT 27/15 A3012 RMK A01 T02700145  RH  046%=      5-min Rain = 0
KUM1 200820Z 20011KT 27/15 A3012 RMK A01 T02700145  RH  046%=      5-min Rain = 0
KUM1 200821Z 20011KT 27/15 A3012 RMK A01 T02700145  RH  046%=      5-min Rain = 0
KUM1 200822Z 20011KT 27/15 A3012 RMK A01 T02690145  RH  046%=      5-min Rain = 0
KUM1 200823Z 19011KT 27/15 A3012 RMK A01 T02700145  RH  046%=      5-min Rain = 0
KUM1 200824Z 20011KT 27/15 A3012 RMK A01 T02700146  RH  047%=      5-min Rain = 0
KUM1 200825Z 19011KT 27/15 A3012 RMK A01 T02690145  RH  047%=      5-min Rain = 0
KUM1 200826Z 20012KT 27/15 A3012 RMK A01 T02690146  RH  047%=      5-min Rain = 0
KUM1 200827Z 20011KT 27/15 A3012 RMK A01 T02690146  RH  047%=      5-min Rain = 0
KUM1 200828Z 20011KT 27/15 A3012 RMK A01 T02690146  RH  047%=      5-min Rain = 0
KUM1 200829Z 19013KT 27/15 A3012 RMK A01 T02690146  RH  047%=      5-min Rain = 0
KUM1 200830Z 19012KT 27/15 A3012 RMK A01 T02690146  RH  047%=      5-min Rain = 0
KUM1 200831Z 19012KT 27/15 A3011 RMK A01 T02690146  RH  047%=      5-min Rain = 0
KUM1 200832Z 19010KT 27/15 A3011 RMK A01 T02690146  RH  047%=      5-min Rain = 0
KUM1 200833Z 19012KT 27/15 A3011 RMK A01 T02690147  RH  047%=      5-min Rain = 0
KUM1 200834Z 19012KT 27/15 A3011 RMK A01 T02690146  RH  047%=      5-min Rain = 0
KUM1 200835Z 19013KT 27/15 A3011 RMK A01 T02690146  RH  047%=      5-min Rain = 0
KUM1 200836Z 19011KT 27/15 A3011 RMK A01 T02690146  RH  047%=      5-min Rain = 0
KUM1 200837Z 19010KT 27/15 A3011 RMK A01 T02680146  RH  047%=      5-min Rain = 0
KUM1 200838Z 19010KT 27/15 A3011 RMK A01 T02680146  RH  047%=      5-min Rain = 0
KUM1 200839Z 19011KT 27/15 A3011 RMK A01 T02680147  RH  047%=      5-min Rain = 0
KUM1 200840Z 19011KT 27/15 A3011 RMK A01 T02670146  RH  047%=      5-min Rain = 0
KUM1 200841Z 19011KT 27/15 A3011 RMK A01 T02670147  RH  048%=      5-min Rain = 0
KUM1 200842Z 19012KT 27/15 A3011 RMK A01 T02670147  RH  048%=      5-min Rain = 0
KUM1 200843Z 19012KT 27/15 A3011 RMK A01 T02670147  RH  048%=      5-min Rain = 0
KUM1 200844Z 19011KT 27/15 A3011 RMK A01 T02680147  RH  047%=      5-min Rain = 0
KUM1 200845Z 19010KT 27/15 A3011 RMK A01 T02680147  RH  047%=      5-min Rain = 0
KUM1 200846Z 19012KT 27/15 A3011 RMK A01 T02680147  RH  048%=      5-min Rain = 0
KUM1 200847Z 19010KT 27/15 A3011 RMK A01 T02680147  RH  048%=      5-min Rain = 0
KUM1 200848Z 19010KT 27/15 A3011 RMK A01 T02680147  RH  048%=      5-min Rain = 0
KUM1 200849Z 19009KT 27/15 A3011 RMK A01 T02670147  RH  048%=      5-min Rain = 0
KUM1 200850Z 19010KT 27/15 A3011 RMK A01 T02670147  RH  048%=      5-min Rain = 0
KUM1 200851Z 19011KT 27/15 A3011 RMK A01 T02660147  RH  048%=      5-min Rain = 0
KUM1 200852Z 19010KT 27/15 A3011 RMK A01 T02660147  RH  048%=      5-min Rain = 0
KUM1 200853Z 19012KT 27/15 A3011 RMK A01 T02660147  RH  048%=      5-min Rain = 0
KUM1 200854Z 19012KT 27/15 A3011 RMK A01 T02670148  RH  048%=      5-min Rain = 0
KUM1 200855Z 19012KT 27/15 A3011 RMK A01 T02670148  RH  048%=      5-min Rain = 0
KUM1 200856Z 20012KT 27/15 A3011 RMK A01 T02670147  RH  048%=      5-min Rain = 0
KUM1 200857Z 19010KT 27/15 A3011 RMK A01 T02670147  RH  048%=      5-min Rain = 0
KUM1 200858Z 19011KT 27/15 A3011 RMK A01 T02670148  RH  048%=      5-min Rain = 0
KUM1 200859Z 19010KT 27/15 A3011 RMK A01 T02670148  RH  048%=      5-min Rain = 0
KUM1 200900Z 19010KT 27/15 A3011 RMK A01 T02670148  RH  048%=      5-min Rain = 0
KUM1 200901Z 20011KT 27/15 A3011 RMK A01 T02670148  RH  048%=      5-min Rain = 0
KUM1 200902Z 20012KT 27/15 A3011 RMK A01 T02660148  RH  048%=      5-min Rain = 0
KUM1 200903Z 19012KT 27/15 A3011 RMK A01 T02660148  RH  048%=      5-min Rain = 0
KUM1 200904Z 19013KT 27/15 A3011 RMK A01 T02670149  RH  048%=      5-min Rain = 0
KUM1 200905Z 20013KT 27/15 A3011 RMK A01 T02670148  RH  048%=      5-min Rain = 0
KUM1 200906Z 19013KT 27/15 A3011 RMK A01 T02680149  RH  048%=      5-min Rain = 0
KUM1 200907Z 19013KT 27/15 A3011 RMK A01 T02670148  RH  048%=      5-min Rain = 0
KUM1 200908Z 20012KT 27/15 A3011 RMK A01 T02670148  RH  048%=      5-min Rain = 0
KUM1 200909Z 20012KT 27/15 A3011 RMK A01 T02670148  RH  048%=      5-min Rain = 0
KUM1 200910Z 20013KT 27/15 A3011 RMK A01 T02670148  RH  048%=      5-min Rain = 0
KUM1 200911Z 19013KT 27/15 A3011 RMK A01 T02670149  RH  048%=      5-min Rain = 0
KUM1 200912Z 20012KT 27/15 A3011 RMK A01 T02670149  RH  048%=      5-min Rain = 0
KUM1 200913Z 20011KT 27/15 A3011 RMK A01 T02660149  RH  048%=      5-min Rain = 0
KUM1 200914Z 20013KT 27/15 A3011 RMK A01 T02660149  RH  049%=      5-min Rain = 0
KUM1 200915Z 20012KT 27/15 A3011 RMK A01 T02660149  RH  049%=      5-min Rain = 0
KUM1 200916Z 20012KT 27/15 A3011 RMK A01 T02660149  RH  049%=      5-min Rain = 0
KUM1 200917Z 20013KT 27/15 A3011 RMK A01 T02660149  RH  049%=      5-min Rain = 0
KUM1 200918Z 20011KT 27/15 A3011 RMK A01 T02650149  RH  049%=      5-min Rain = 0
KUM1 200919Z 20011KT 27/15 A3011 RMK A01 T02650149  RH  049%=      5-min Rain = 0
KUM1 200920Z 20011KT 27/15 A3011 RMK A01 T02650149  RH  049%=      5-min Rain = 0
KUM1 200921Z 20011KT 27/15 A3011 RMK A01 T02650149  RH  049%=      5-min Rain = 0
KUM1 200922Z 20011KT 27/15 A3011 RMK A01 T02650149  RH  049%=      5-min Rain = 0
KUM1 200923Z 20011KT 26/15 A3011 RMK A01 T02640149  RH  049%=      5-min Rain = 0
KUM1 200924Z 20011KT 26/15 A3011 RMK A01 T02640149  RH  049%=      5-min Rain = 0
KUM1 200925Z 20011KT 26/15 A3011 RMK A01 T02630149  RH  049%=      5-min Rain = 0
KUM1 200926Z 20010KT 26/15 A3011 RMK A01 T02630149  RH  049%=      5-min Rain = 0
KUM1 200927Z 20010KT 26/15 A3011 RMK A01 T02630149  RH  049%=      5-min Rain = 0
KUM1 200928Z 20011KT 26/15 A3011 RMK A01 T02620149  RH  050%=      5-min Rain = 0
KUM1 200929Z 20011KT 26/15 A3011 RMK A01 T02620149  RH  050%=      5-min Rain = 0
KUM1 200930Z 20011KT 26/15 A3011 RMK A01 T02620149  RH  050%=      5-min Rain = 0
KUM1 200931Z 20011KT 26/15 A3011 RMK A01 T02620149  RH  050%=      5-min Rain = 0
KUM1 200932Z 20011KT 26/15 A3011 RMK A01 T02620149  RH  050%=      5-min Rain = 0
KUM1 200933Z 20012KT 26/15 A3011 RMK A01 T02620149  RH  050%=      5-min Rain = 0
KUM1 200934Z 20010KT 26/15 A3011 RMK A01 T02620149  RH  050%=      5-min Rain = 0
KUM1 200935Z 20012KT 26/15 A3011 RMK A01 T02620149  RH  050%=      5-min Rain = 0
KUM1 200936Z 20012KT 26/15 A3011 RMK A01 T02620149  RH  050%=      5-min Rain = 0
KUM1 200937Z 20011KT 26/15 A3011 RMK A01 T02620149  RH  050%=      5-min Rain = 0
KUM1 200938Z 20012KT 26/15 A3011 RMK A01 T02620149  RH  050%=      5-min Rain = 0
KUM1 200939Z 20012KT 26/15 A3011 RMK A01 T02620149  RH  050%=      5-min Rain = 0
KUM1 200940Z 20012KT 26/15 A3011 RMK A01 T02620149  RH  050%=      5-min Rain = 0
KUM1 200941Z 20012KT 26/15 A3011 RMK A01 T02610149  RH  050%=      5-min Rain = 0
KUM1 200942Z 20011KT 26/15 A3011 RMK A01 T02610149  RH  050%=      5-min Rain = 0
KUM1 200943Z 20012KT 26/15 A3011 RMK A01 T02610149  RH  050%=      5-min Rain = 0
KUM1 200944Z 20012KT 26/15 A3011 RMK A01 T02610149  RH  050%=      5-min Rain = 0
KUM1 200945Z 20012KT 26/15 A3011 RMK A01 T02610149  RH  050%=      5-min Rain = 0
KUM1 200946Z 20012KT 26/15 A3011 RMK A01 T02610149  RH  050%=      5-min Rain = 0
KUM1 200947Z 20012KT 26/15 A3011 RMK A01 T02610149  RH  050%=      5-min Rain = 0
KUM1 200948Z 20012KT 26/15 A3011 RMK A01 T02610149  RH  050%=      5-min Rain = 0
KUM1 200949Z 20012KT 26/15 A3011 RMK A01 T02610149  RH  050%=      5-min Rain = 0
KUM1 200950Z 20011KT 26/15 A3011 RMK A01 T02610149  RH  050%=      5-min Rain = 0
KUM1 200951Z 20012KT 26/15 A3011 RMK A01 T02610149  RH  050%=      5-min Rain = 0
KUM1 200952Z 20012KT 26/15 A3011 RMK A01 T02610149  RH  050%=      5-min Rain = 0
KUM1 200953Z 20011KT 26/15 A3011 RMK A01 T02610149  RH  050%=      5-min Rain = 0
KUM1 200954Z 20012KT 26/15 A3011 RMK A01 T02610149  RH  050%=      5-min Rain = 0
KUM1 200955Z 20012KT 26/15 A3011 RMK A01 T02610149  RH  050%=      5-min Rain = 0
KUM1 200956Z 19012KT 26/15 A3011 RMK A01 T02610149  RH  050%=      5-min Rain = 0
KUM1 200957Z 20013KT 26/15 A3011 RMK A01 T02610150  RH  050%=      5-min Rain = 0
KUM1 200958Z 20011KT 26/15 A3011 RMK A01 T02610150  RH  050%=      5-min Rain = 0
KUM1 200959Z 20012KT 26/15 A3011 RMK A01 T02620150  RH  050%=      5-min Rain = 0
KUM1 201000Z 20013KT 26/15 A3011 RMK A01 T02610149  RH  050%=      5-min Rain = 0
KUM1 201001Z 20012KT 26/15 A3011 RMK A01 T02610150  RH  050%=      5-min Rain = 0
KUM1 201002Z 20012KT 26/15 A3011 RMK A01 T02610150  RH  050%=      5-min Rain = 0
KUM1 201003Z 20013KT 26/15 A3011 RMK A01 T02620150  RH  050%=      5-min Rain = 0
KUM1 201004Z 20012KT 26/15 A3011 RMK A01 T02620150  RH  050%=      5-min Rain = 0
KUM1 201005Z 20012KT 26/15 A3011 RMK A01 T02620150  RH  050%=      5-min Rain = 0
KUM1 201006Z 20011KT 26/15 A3011 RMK A01 T02620150  RH  050%=      5-min Rain = 0
KUM1 201007Z 20012KT 26/15 A3011 RMK A01 T02620150  RH  050%=      5-min Rain = 0
KUM1 201008Z 20011KT 26/15 A3011 RMK A01 T02620150  RH  050%=      5-min Rain = 0
KUM1 201009Z 20012KT 26/15 A3011 RMK A01 T02620150  RH  050%=      5-min Rain = 0
KUM1 201010Z 20013KT 26/15 A3011 RMK A01 T02620150  RH  050%=      5-min Rain = 0
KUM1 201011Z 20013KT 26/15 A3011 RMK A01 T02620151  RH  050%=      5-min Rain = 0
KUM1 201012Z 20013KT 26/15 A3011 RMK A01 T02620150  RH  050%=      5-min Rain = 0
KUM1 201013Z 20013KT 26/15 A3011 RMK A01 T02630151  RH  050%=      5-min Rain = 0
KUM1 201014Z 20012KT 26/15 A3011 RMK A01 T02630151  RH  050%=      5-min Rain = 0
KUM1 201015Z 20014KT 26/15 A3011 RMK A01 T02630151  RH  050%=      5-min Rain = 0
KUM1 201016Z 20012G17KT 26/15 A3011 RMK A01 T02630151  RH  050%=      5-min Rain = 0
KUM1 201017Z 20012KT 26/15 A3011 RMK A01 T02630151  RH  050%=      5-min Rain = 0
KUM1 201018Z 20012KT 26/15 A3011 RMK A01 T02630151  RH  050%=      5-min Rain = 0
KUM1 201019Z 20013KT 26/15 A3011 RMK A01 T02630151  RH  050%=      5-min Rain = 0
KUM1 201020Z 21012KT 26/15 A3011 RMK A01 T02620151  RH  050%=      5-min Rain = 0
KUM1 201021Z 21012KT 26/15 A3011 RMK A01 T02630151  RH  050%=      5-min Rain = 0
KUM1 201022Z 20013KT 26/15 A3011 RMK A01 T02630151  RH  050%=      5-min Rain = 0
KUM1 201023Z 20012KT 26/15 A3011 RMK A01 T02630151  RH  050%=      5-min Rain = 0
KUM1 201024Z 20015KT 26/15 A3011 RMK A01 T02630151  RH  050%=      5-min Rain = 0
KUM1 201025Z 20014KT 26/15 A3011 RMK A01 T02630152  RH  050%=      5-min Rain = 0
KUM1 201026Z 20014KT 26/15 A3011 RMK A01 T02640152  RH  050%=      5-min Rain = 0
KUM1 201027Z 20013KT 26/15 A3011 RMK A01 T02630151  RH  050%=      5-min Rain = 0
KUM1 201028Z 21014KT 26/15 A3011 RMK A01 T02640152  RH  050%=      5-min Rain = 0
KUM1 201029Z 20013KT 26/15 A3011 RMK A01 T02640152  RH  050%=      5-min Rain = 0
KUM1 201030Z 20013KT 26/15 A3011 RMK A01 T02630152  RH  050%=      5-min Rain = 0
KUM1 201031Z 20012KT 26/15 A3011 RMK A01 T02630152  RH  050%=      5-min Rain = 0
KUM1 201032Z 21013KT 26/15 A3011 RMK A01 T02630152  RH  050%=      5-min Rain = 0
KUM1 201033Z 21013KT 26/15 A3011 RMK A01 T02620152  RH  051%=      5-min Rain = 0
KUM1 201034Z 21013KT 26/15 A3011 RMK A01 T02620152  RH  051%=      5-min Rain = 0
KUM1 201035Z 21012KT 26/15 A3011 RMK A01 T02620152  RH  051%=      5-min Rain = 0
KUM1 201036Z 21011KT 26/15 A3012 RMK A01 T02620152  RH  051%=      5-min Rain = 0
KUM1 201037Z 21012KT 26/15 A3012 RMK A01 T02610152  RH  051%=      5-min Rain = 0
KUM1 201038Z 21013KT 26/15 A3012 RMK A01 T02610152  RH  051%=      5-min Rain = 0
KUM1 201039Z 21013KT 26/15 A3012 RMK A01 T02610152  RH  051%=      5-min Rain = 0
KUM1 201040Z 21012KT 26/15 A3012 RMK A01 T02610152  RH  051%=      5-min Rain = 0
KUM1 201041Z 21013KT 26/15 A3011 RMK A01 T02610152  RH  051%=      5-min Rain = 0
KUM1 201042Z 21012KT 26/15 A3011 RMK A01 T02610152  RH  051%=      5-min Rain = 0
KUM1 201043Z 21013KT 26/15 A3011 RMK A01 T02610152  RH  051%=      5-min Rain = 0
KUM1 201044Z 20012KT 26/15 A3011 RMK A01 T02610152  RH  051%=      5-min Rain = 0
KUM1 201045Z 21012KT 26/15 A3011 RMK A01 T02610152  RH  051%=      5-min Rain = 0
KUM1 201046Z 21012KT 26/15 A3011 RMK A01 T02610152  RH  051%=      5-min Rain = 0
KUM1 201047Z 21013KT 26/15 A3011 RMK A01 T02610152  RH  051%=      5-min Rain = 0
KUM1 201048Z 21012KT 26/15 A3012 RMK A01 T02600152  RH  051%=      5-min Rain = 0
KUM1 201049Z 21012KT 26/15 A3012 RMK A01 T02600152  RH  051%=      5-min Rain = 0
KUM1 201050Z 21012KT 26/15 A3011 RMK A01 T02600152  RH  051%=      5-min Rain = 0
KUM1 201051Z 20013KT 26/15 A3011 RMK A01 T02600152  RH  051%=      5-min Rain = 0
KUM1 201052Z 21013KT 26/15 A3012 RMK A01 T02600152  RH  051%=      5-min Rain = 0
KUM1 201053Z 21012KT 26/15 A3011 RMK A01 T02600152  RH  051%=      5-min Rain = 0
KUM1 201054Z 21012KT 26/15 A3012 RMK A01 T02600152  RH  051%=      5-min Rain = 0
KUM1 201055Z 20012KT 26/15 A3012 RMK A01 T02600152  RH  051%=      5-min Rain = 0
KUM1 201056Z 21012KT 26/15 A3012 RMK A01 T02600152  RH  051%=      5-min Rain = 0
KUM1 201057Z 21011KT 26/15 A3012 RMK A01 T02600152  RH  051%=      5-min Rain = 0
KUM1 201058Z 21011KT 26/15 A3012 RMK A01 T02600152  RH  051%=      5-min Rain = 0
KUM1 201059Z 21011KT 26/15 A3012 RMK A01 T02590152  RH  052%=      5-min Rain = 0
KUM1 201100Z 22011KT 26/15 A3012 RMK A01 T02590152  RH  052%=      5-min Rain = 0
KUM1 201101Z 22010KT 26/15 A3012 RMK A01 T02590152  RH  052%=      5-min Rain = 0
KUM1 201102Z 22009KT 26/15 A3012 RMK A01 T02580152  RH  052%=      5-min Rain = 0
KUM1 201103Z 22009KT 26/15 A3012 RMK A01 T02580152  RH  052%=      5-min Rain = 0
KUM1 201104Z 22009KT 26/15 A3012 RMK A01 T02570153  RH  052%=      5-min Rain = 0
KUM1 201105Z 23008KT 26/15 A3012 RMK A01 T02560153  RH  053%=      5-min Rain = 0
KUM1 201106Z 22007KT 26/15 A3012 RMK A01 T02560153  RH  053%=      5-min Rain = 0
KUM1 201107Z 22008KT 26/15 A3012 RMK A01 T02550153  RH  053%=      5-min Rain = 0
KUM1 201108Z 22008KT 25/15 A3012 RMK A01 T02540152  RH  053%=      5-min Rain = 0
KUM1 201109Z 22008KT 25/15 A3012 RMK A01 T02540153  RH  053%=      5-min Rain = 0
KUM1 201110Z 22007KT 25/15 A3012 RMK A01 T02530153  RH  054%=      5-min Rain = 0
KUM1 201111Z 22008KT 25/15 A3012 RMK A01 T02520153  RH  054%=      5-min Rain = 0
KUM1 201112Z 22008KT 25/15 A3012 RMK A01 T02520153  RH  054%=      5-min Rain = 0
KUM1 201113Z 22008KT 25/15 A3012 RMK A01 T02510152  RH  054%=      5-min Rain = 0
KUM1 201114Z 22007KT 25/15 A3012 RMK A01 T02510153  RH  054%=      5-min Rain = 0
KUM1 201115Z 22008KT 25/15 A3012 RMK A01 T02510152  RH  054%=      5-min Rain = 0
KUM1 201116Z 22008KT 25/15 A3012 RMK A01 T02510152  RH  054%=      5-min Rain = 0
KUM1 201117Z 23009KT 25/15 A3012 RMK A01 T02510152  RH  054%=      5-min Rain = 0
KUM1 201118Z 23008KT 25/15 A3012 RMK A01 T02520152  RH  054%=      5-min Rain = 0
KUM1 201119Z 23010KT 25/15 A3012 RMK A01 T02530152  RH  053%=      5-min Rain = 0
KUM1 201120Z 23009KT 25/15 A3012 RMK A01 T02540152  RH  053%=      5-min Rain = 0
KUM1 201121Z 23009KT 26/15 A3012 RMK A01 T02550152  RH  053%=      5-min Rain = 0
KUM1 201122Z 22009KT 26/15 A3012 RMK A01 T02550152  RH  053%=      5-min Rain = 0
KUM1 201123Z 23008KT 26/15 A3012 RMK A01 T02550152  RH  053%=      5-min Rain = 0
KUM1 201124Z 22009KT 26/15 A3012 RMK A01 T02550152  RH  053%=      5-min Rain = 0
KUM1 201125Z 23008KT 26/15 A3012 RMK A01 T02550152  RH  053%=      5-min Rain = 0
KUM1 201126Z 23009KT 26/15 A3012 RMK A01 T02550152  RH  053%=      5-min Rain = 0
KUM1 201127Z 23008KT 26/15 A3012 RMK A01 T02550152  RH  053%=      5-min Rain = 0
KUM1 201128Z 23007KT 26/15 A3012 RMK A01 T02550151  RH  053%=      5-min Rain = 0
KUM1 201129Z 23007KT 26/15 A3012 RMK A01 T02550151  RH  053%=      5-min Rain = 0
KUM1 201130Z 23006KT 26/15 A3012 RMK A01 T02550151  RH  053%=      5-min Rain = 0
KUM1 201131Z 24007KT 26/15 A3012 RMK A01 T02550151  RH  053%=      5-min Rain = 0
KUM1 201132Z 24006KT 26/15 A3012 RMK A01 T02550151  RH  052%=      5-min Rain = 0
KUM1 201133Z 24007KT 26/15 A3012 RMK A01 T02550151  RH  052%=      5-min Rain = 0
KUM1 201134Z 24007KT 26/15 A3012 RMK A01 T02550151  RH  052%=      5-min Rain = 0
KUM1 201135Z 24007KT 26/15 A3012 RMK A01 T02550150  RH  052%=      5-min Rain = 0
KUM1 201136Z 24006KT 26/15 A3012 RMK A01 T02550150  RH  052%=      5-min Rain = 0
KUM1 201137Z 25006KT 26/15 A3012 RMK A01 T02560150  RH  052%=      5-min Rain = 0
KUM1 201138Z 24006KT 26/15 A3013 RMK A01 T02550150  RH  052%=      5-min Rain = 0
KUM1 201139Z 25006KT 26/15 A3013 RMK A01 T02550150  RH  052%=      5-min Rain = 0
KUM1 201140Z 25007KT 26/15 A3013 RMK A01 T02550150  RH  052%=      5-min Rain = 0
KUM1 201141Z 25007KT 26/15 A3013 RMK A01 T02550150  RH  052%=      5-min Rain = 0
KUM1 201142Z 25006KT 25/15 A3013 RMK A01 T02540150  RH  052%=      5-min Rain = 0
KUM1 201143Z 25006KT 25/15 A3013 RMK A01 T02540150  RH  053%=      5-min Rain = 0
KUM1 201144Z 25006KT 25/15 A3013 RMK A01 T02530150  RH  053%=      5-min Rain = 0
KUM1 201145Z 25006KT 25/15 A3013 RMK A01 T02530150  RH  053%=      5-min Rain = 0
KUM1 201146Z 25006KT 25/15 A3013 RMK A01 T02520150  RH  053%=      5-min Rain = 0
KUM1 201147Z 25006KT 25/15 A3013 RMK A01 T02520150  RH  053%=      5-min Rain = 0
KUM1 201148Z 25006KT 25/15 A3013 RMK A01 T02520150  RH  053%=      5-min Rain = 0
KUM1 201149Z 26006KT 25/15 A3013 RMK A01 T02510150  RH  053%=      5-min Rain = 0
KUM1 201150Z 26006KT 25/15 A3013 RMK A01 T02510150  RH  053%=      5-min Rain = 0
KUM1 201151Z 25005KT 25/15 A3013 RMK A01 T02510150  RH  054%=      5-min Rain = 0
KUM1 201152Z 25005KT 25/15 A3013 RMK A01 T02500150  RH  054%=      5-min Rain = 0
KUM1 201153Z 25006KT 25/15 A3013 RMK A01 T02500150  RH  054%=      5-min Rain = 0
KUM1 201154Z 25006KT 25/15 A3013 RMK A01 T02490150  RH  054%=      5-min Rain = 0
KUM1 201155Z 25007KT 25/15 A3013 RMK A01 T02490150  RH  054%=      5-min Rain = 0
KUM1 201156Z 25007KT 25/15 A3013 RMK A01 T02500150  RH  054%=      5-min Rain = 0
KUM1 201157Z 25007KT 25/15 A3013 RMK A01 T02500150  RH  054%=      5-min Rain = 0
KUM1 201158Z 24007KT 25/15 A3013 RMK A01 T02510150  RH  053%=      5-min Rain = 0
KUM1 201159Z 24007KT 25/15 A3013 RMK A01 T02510150  RH  053%=      5-min Rain = 0
KUM1 201200Z 24007KT 25/15 A3013 RMK A01 T02520150  RH  053%=      5-min Rain = 0
KUM1 201201Z 24007KT 25/15 A3013 RMK A01 T02530150  RH  053%=      5-min Rain = 0
KUM1 201202Z 24008KT 25/15 A3013 RMK A01 T02530150  RH  053%=      5-min Rain = 0
KUM1 201203Z 24006KT 25/15 A3013 RMK A01 T02530150  RH  053%=      5-min Rain = 0
KUM1 201204Z 24006KT 25/15 A3013 RMK A01 T02530150  RH  053%=      5-min Rain = 0
KUM1 201205Z 24006KT 25/15 A3013 RMK A01 T02530150  RH  053%=      5-min Rain = 0
KUM1 201206Z 24006KT 25/15 A3013 RMK A01 T02530150  RH  053%=      5-min Rain = 0
KUM1 201207Z 24007KT 25/15 A3013 RMK A01 T02520150  RH  053%=      5-min Rain = 0
KUM1 201208Z 24007KT 25/15 A3013 RMK A01 T02520150  RH  053%=      5-min Rain = 0
KUM1 201209Z 23005KT 25/15 A3013 RMK A01 T02520150  RH  053%=      5-min Rain = 0
KUM1 201210Z 23005KT 25/15 A3013 RMK A01 T02520150  RH  053%=      5-min Rain = 0
KUM1 201211Z 23005KT 25/15 A3013 RMK A01 T02520150  RH  053%=      5-min Rain = 0
KUM1 201212Z 23005KT 25/15 A3013 RMK A01 T02520150  RH  053%=      5-min Rain = 0
KUM1 201213Z 23004KT 25/15 A3014 RMK A01 T02510150  RH  053%=      5-min Rain = 0
KUM1 201214Z 23004KT 25/15 A3014 RMK A01 T02510150  RH  054%=      5-min Rain = 0
KUM1 201215Z 23005KT 25/15 A3014 RMK A01 T02500150  RH  054%=      5-min Rain = 0
KUM1 201216Z 23004KT 25/15 A3014 RMK A01 T02500151  RH  054%=      5-min Rain = 0
KUM1 201217Z 22005KT 25/15 A3014 RMK A01 T02500151  RH  054%=      5-min Rain = 0
KUM1 201218Z 22005KT 25/15 A3014 RMK A01 T02500151  RH  054%=      5-min Rain = 0
KUM1 201219Z 22004KT 25/15 A3014 RMK A01 T02490151  RH  054%=      5-min Rain = 0
KUM1 201220Z 22004KT 25/15 A3014 RMK A01 T02490152  RH  055%=      5-min Rain = 0
KUM1 201221Z 22004KT 25/15 A3014 RMK A01 T02480152  RH  055%=      5-min Rain = 0
KUM1 201222Z 21004KT 25/15 A3014 RMK A01 T02480152  RH  055%=      5-min Rain = 0
KUM1 201223Z 21004KT 25/15 A3014 RMK A01 T02470152  RH  055%=      5-min Rain = 0
KUM1 201224Z 21004KT 25/15 A3014 RMK A01 T02470152  RH  055%=      5-min Rain = 0
KUM1 201225Z 21003KT 25/15 A3014 RMK A01 T02470152  RH  056%=      5-min Rain = 0
KUM1 201226Z 21003KT 25/15 A3014 RMK A01 T02470152  RH  055%=      5-min Rain = 0
KUM1 201227Z 21003KT 25/15 A3014 RMK A01 T02470152  RH  055%=      5-min Rain = 0
KUM1 201228Z 22003KT 25/15 A3014 RMK A01 T02470152  RH  055%=      5-min Rain = 0
KUM1 201229Z 21003KT 25/15 A3014 RMK A01 T02470152  RH  055%=      5-min Rain = 0
KUM1 201230Z 22003KT 25/15 A3014 RMK A01 T02470152  RH  055%=      5-min Rain = 0
KUM1 201231Z 22003KT 25/15 A3014 RMK A01 T02470152  RH  055%=      5-min Rain = 0
KUM1 201232Z 23003KT 25/15 A3014 RMK A01 T02470152  RH  055%=      5-min Rain = 0
KUM1 201233Z 23002KT 25/15 A3014 RMK A01 T02470152  RH  055%=      5-min Rain = 0
KUM1 201234Z 23002KT 25/15 A3014 RMK A01 T02470152  RH  055%=      5-min Rain = 0
KUM1 201235Z 24002KT 25/15 A3014 RMK A01 T02470151  RH  055%=      5-min Rain = 0
KUM1 201236Z 25002KT 25/15 A3014 RMK A01 T02470151  RH  055%=      5-min Rain = 0
KUM1 201237Z 25002KT 25/15 A3014 RMK A01 T02480151  RH  055%=      5-min Rain = 0
KUM1 201238Z 25002KT 25/15 A3015 RMK A01 T02480151  RH  055%=      5-min Rain = 0
KUM1 201239Z 25002KT 25/15 A3015 RMK A01 T02480151  RH  055%=      5-min Rain = 0
KUM1 201240Z 25001KT 25/15 A3015 RMK A01 T02470151  RH  055%=      5-min Rain = 0
KUM1 201241Z 25001KT 25/15 A3015 RMK A01 T02470152  RH  055%=      5-min Rain = 0
KUM1 201242Z 25001KT 25/15 A3015 RMK A01 T02460152  RH  056%=      5-min Rain = 0
KUM1 201243Z 26002KT 25/15 A3015 RMK A01 T02460151  RH  055%=      5-min Rain = 0
KUM1 201244Z 26002KT 25/15 A3015 RMK A01 T02460151  RH  055%=      5-min Rain = 0
KUM1 201245Z 27002KT 25/15 A3015 RMK A01 T02460150  RH  055%=      5-min Rain = 0
KUM1 201246Z 28003KT 25/15 A3015 RMK A01 T02450150  RH  055%=      5-min Rain = 0
KUM1 201247Z 29003KT 25/15 A3015 RMK A01 T02450149  RH  055%=      5-min Rain = 0
KUM1 201248Z 29003KT 24/15 A3015 RMK A01 T02440149  RH  055%=      5-min Rain = 0
KUM1 201249Z 29003KT 25/15 A3015 RMK A01 T02450149  RH  055%=      5-min Rain = 0
KUM1 201250Z 28003KT 24/15 A3015 RMK A01 T02440149  RH  055%=      5-min Rain = 0
KUM1 201251Z 28003KT 24/15 A3015 RMK A01 T02440149  RH  055%=      5-min Rain = 0
KUM1 201252Z 28003KT 24/15 A3015 RMK A01 T02440149  RH  055%=      5-min Rain = 0
KUM1 201253Z 27003KT 24/15 A3015 RMK A01 T02440149  RH  055%=      5-min Rain = 0
KUM1 201254Z 27003KT 24/15 A3015 RMK A01 T02440149  RH  055%=      5-min Rain = 0
KUM1 201255Z 27003KT 25/15 A3015 RMK A01 T02450150  RH  055%=      5-min Rain = 0
KUM1 201256Z 27003KT 24/15 A3015 RMK A01 T02440149  RH  055%=      5-min Rain = 0
KUM1 201257Z 26004KT 25/15 A3015 RMK A01 T02450150  RH  055%=      5-min Rain = 0
KUM1 201258Z 26004KT 25/15 A3015 RMK A01 T02450150  RH  055%=      5-min Rain = 0
KUM1 201259Z 26004KT 25/15 A3015 RMK A01 T02450150  RH  055%=      5-min Rain = 0
KUM1 201300Z 26004KT 25/15 A3015 RMK A01 T02460150  RH  055%=      5-min Rain = 0
KUM1 201301Z 26004KT 25/15 A3015 RMK A01 T02460150  RH  055%=      5-min Rain = 0
KUM1 201302Z 27004KT 25/15 A3015 RMK A01 T02470150  RH  055%=      5-min Rain = 0
KUM1 201303Z 27004KT 25/15 A3016 RMK A01 T02470151  RH  055%=      5-min Rain = 0
KUM1 201304Z 27004KT 25/15 A3016 RMK A01 T02480151  RH  055%=      5-min Rain = 0
KUM1 201305Z 27005KT 25/15 A3016 RMK A01 T02480151  RH  055%=      5-min Rain = 0
KUM1 201306Z 26005KT 25/15 A3016 RMK A01 T02480151  RH  055%=      5-min Rain = 0
KUM1 201307Z 25005KT 25/15 A3016 RMK A01 T02480151  RH  055%=      5-min Rain = 0
KUM1 201308Z 25005KT 25/15 A3016 RMK A01 T02480151  RH  055%=      5-min Rain = 0
KUM1 201309Z 24005KT 25/15 A3016 RMK A01 T02480152  RH  055%=      5-min Rain = 0
KUM1 201310Z 24005KT 25/15 A3016 RMK A01 T02480152  RH  055%=      5-min Rain = 0
KUM1 201311Z 24005KT 25/15 A3016 RMK A01 T02490152  RH  055%=      5-min Rain = 0
KUM1 201312Z 25006KT 25/15 A3016 RMK A01 T02500153  RH  055%=      5-min Rain = 0
KUM1 201313Z 25006KT 25/15 A3016 RMK A01 T02500153  RH  055%=      5-min Rain = 0
KUM1 201314Z 25006KT 25/15 A3016 RMK A01 T02500152  RH  055%=      5-min Rain = 0
KUM1 201315Z 24006KT 25/15 A3016 RMK A01 T02510153  RH  055%=      5-min Rain = 0
KUM1 201316Z 24006KT 25/15 A3016 RMK A01 T02510153  RH  055%=      5-min Rain = 0
KUM1 201317Z 23005KT 25/15 A3016 RMK A01 T02510153  RH  055%=      5-min Rain = 0
KUM1 201318Z 23005KT 25/15 A3016 RMK A01 T02510154  RH  055%=      5-min Rain = 0
KUM1 201319Z 23004KT 25/16 A3016 RMK A01 T02510155  RH  055%=      5-min Rain = 0
KUM1 201320Z 23005KT 25/16 A3016 RMK A01 T02510156  RH  056%=      5-min Rain = 0
KUM1 201321Z 23005KT 25/16 A3016 RMK A01 T02500156  RH  056%=      5-min Rain = 0
KUM1 201322Z 23005KT 25/16 A3016 RMK A01 T02500156  RH  056%=      5-min Rain = 0
KUM1 201323Z 23004KT 25/16 A3016 RMK A01 T02500156  RH  056%=      5-min Rain = 0
KUM1 201324Z 24005KT 25/16 A3016 RMK A01 T02490155  RH  056%=      5-min Rain = 0
KUM1 201325Z 24004KT 25/16 A3016 RMK A01 T02490155  RH  056%=      5-min Rain = 0
KUM1 201326Z 23005KT 25/16 A3016 RMK A01 T02490155  RH  056%=      5-min Rain = 0
KUM1 201327Z 24005KT 25/15 A3016 RMK A01 T02500154  RH  055%=      5-min Rain = 0
KUM1 201328Z 24005KT 25/15 A3016 RMK A01 T02500153  RH  055%=      5-min Rain = 0
KUM1 201329Z 24005KT 25/15 A3016 RMK A01 T02510154  RH  055%=      5-min Rain = 0
KUM1 201330Z 24005KT 25/15 A3016 RMK A01 T02530154  RH  054%=      5-min Rain = 0
KUM1 201331Z 24005KT 25/15 A3016 RMK A01 T02530154  RH  054%=      5-min Rain = 0
KUM1 201332Z 23006KT 26/15 A3016 RMK A01 T02550154  RH  053%=      5-min Rain = 0
KUM1 201333Z 24005KT 26/15 A3016 RMK A01 T02550153  RH  053%=      5-min Rain = 0
KUM1 201334Z 24005KT 26/15 A3016 RMK A01 T02550154  RH  053%=      5-min Rain = 0
KUM1 201335Z 23005KT 26/15 A3016 RMK A01 T02560154  RH  053%=      5-min Rain = 0
KUM1 201336Z 23005KT 26/15 A3016 RMK A01 T02560154  RH  053%=      5-min Rain = 0
KUM1 201337Z 23005KT 26/15 A3016 RMK A01 T02560154  RH  053%=      5-min Rain = 0
KUM1 201338Z 23005KT 26/15 A3016 RMK A01 T02560154  RH  053%=      5-min Rain = 0
KUM1 201339Z 23005KT 26/15 A3016 RMK A01 T02560154  RH  053%=      5-min Rain = 0
KUM1 201340Z 23005KT 26/15 A3016 RMK A01 T02560154  RH  053%=      5-min Rain = 0
KUM1 201341Z 23006KT 26/16 A3016 RMK A01 T02550155  RH  054%=      5-min Rain = 0
KUM1 201342Z 23005KT 26/16 A3016 RMK A01 T02550155  RH  054%=      5-min Rain = 0
KUM1 201343Z 23006KT 26/16 A3016 RMK A01 T02560155  RH  054%=      5-min Rain = 0
KUM1 201344Z 23006KT 26/15 A3016 RMK A01 T02560154  RH  053%=      5-min Rain = 0
KUM1 201345Z 23006KT 26/16 A3016 RMK A01 T02560155  RH  053%=      5-min Rain = 0
KUM1 201346Z 23006KT 26/16 A3016 RMK A01 T02570155  RH  053%=      5-min Rain = 0
KUM1 201347Z 22006KT 26/16 A3016 RMK A01 T02570155  RH  053%=      5-min Rain = 0
KUM1 201348Z 22006KT 26/16 A3016 RMK A01 T02570156  RH  054%=      5-min Rain = 0
KUM1 201349Z 22006KT 26/16 A3016 RMK A01 T02560156  RH  054%=      5-min Rain = 0
KUM1 201350Z 22006KT 26/16 A3016 RMK A01 T02560156  RH  054%=      5-min Rain = 0
KUM1 201351Z 22007KT 26/16 A3016 RMK A01 T02580156  RH  053%=      5-min Rain = 0
KUM1 201352Z 21007KT 26/16 A3016 RMK A01 T02610156  RH  052%=      5-min Rain = 0
KUM1 201353Z 21007KT 27/16 A3016 RMK A01 T02650155  RH  051%=      5-min Rain = 0
KUM1 201354Z 22007KT 27/16 A3016 RMK A01 T02680155  RH  050%=      5-min Rain = 0
KUM1 201355Z 23007KT 27/16 A3016 RMK A01 T02710155  RH  049%=      5-min Rain = 0
KUM1 201356Z 22009KT 27/15 A3016 RMK A01 T02720152  RH  048%=      5-min Rain = 0
KUM1 201357Z 22008KT 27/15 A3016 RMK A01 T02730151  RH  047%=      5-min Rain = 0
KUM1 201358Z 22008KT 27/15 A3016 RMK A01 T02730153  RH  048%=      5-min Rain = 0
KUM1 201359Z 23007KT 27/15 A3016 RMK A01 T02740153  RH  048%=      5-min Rain = 0
KUM1 201400Z 22009KT 28/15 A3016 RMK A01 T02760152  RH  047%=      5-min Rain = 0
KUM1 201401Z 22008KT 28/15 A3016 RMK A01 T02770149  RH  046%=      5-min Rain = 0
KUM1 201402Z 23008KT 28/15 A3016 RMK A01 T02760150  RH  046%=      5-min Rain = 0
KUM1 201403Z 23008KT 28/15 A3016 RMK A01 T02760151  RH  047%=      5-min Rain = 0
KUM1 201404Z 23007KT 28/15 A3016 RMK A01 T02750152  RH  047%=      5-min Rain = 0
KUM1 201405Z 23008KT 27/15 A3016 RMK A01 T02740151  RH  047%=      5-min Rain = 0
KUM1 201406Z 23008KT 27/15 A3016 RMK A01 T02730148  RH  046%=      5-min Rain = 0
KUM1 201407Z 23009KT 27/15 A3016 RMK A01 T02730148  RH  046%=      5-min Rain = 0
KUM1 201408Z 23008KT 27/15 A3016 RMK A01 T02720147  RH  046%=      5-min Rain = 0
KUM1 201409Z 23008KT 27/15 A3016 RMK A01 T02710149  RH  047%=      5-min Rain = 0
KUM1 201410Z 23009KT 27/15 A3016 RMK A01 T02700147  RH  047%=      5-min Rain = 0
KUM1 201411Z 23010KT 27/15 A3016 RMK A01 T02700146  RH  047%=      5-min Rain = 0
KUM1 201412Z 23010KT 27/15 A3016 RMK A01 T02700146  RH  046%=      5-min Rain = 0
KUM1 201413Z 24009KT 27/15 A3016 RMK A01 T02710146  RH  046%=      5-min Rain = 0
KUM1 201414Z 24008KT 27/15 A3016 RMK A01 T02720146  RH  046%=      5-min Rain = 0
KUM1 201415Z 23010KT 27/15 A3016 RMK A01 T02720147  RH  046%=      5-min Rain = 0
KUM1 201416Z 23007KT 27/15 A3017 RMK A01 T02730147  RH  046%=      5-min Rain = 0
KUM1 201417Z 24008KT 27/15 A3017 RMK A01 T02730148  RH  046%=      5-min Rain = 0
KUM1 201418Z 23009KT 27/15 A3017 RMK A01 T02730148  RH  046%=      5-min Rain = 0
KUM1 201419Z 24010KT 27/15 A3017 RMK A01 T02730147  RH  046%=      5-min Rain = 0
KUM1 201420Z 24008KT 27/15 A3017 RMK A01 T02740147  RH  046%=      5-min Rain = 0
KUM1 201421Z 24008KT 28/15 A3017 RMK A01 T02750147  RH  046%=      5-min Rain = 0
KUM1 201422Z 24008KT 28/15 A3017 RMK A01 T02750146  RH  045%=      5-min Rain = 0
KUM1 201423Z 24007KT 28/15 A3017 RMK A01 T02770147  RH  045%=      5-min Rain = 0
KUM1 201424Z 24005KT 28/15 A3017 RMK A01 T02780149  RH  045%=      5-min Rain = 0
KUM1 201425Z 24008KT 28/15 A3017 RMK A01 T02780149  RH  045%=      5-min Rain = 0
KUM1 201426Z 24010KT 28/15 A3017 RMK A01 T02780148  RH  045%=      5-min Rain = 0
KUM1 201427Z 24007KT 28/15 A3017 RMK A01 T02780148  RH  045%=      5-min Rain = 0
KUM1 201428Z 24006KT 28/15 A3017 RMK A01 T02780148  RH  045%=      5-min Rain = 0
KUM1 201429Z 24007KT 28/15 A3017 RMK A01 T02790147  RH  044%=      5-min Rain = 0
KUM1 201430Z 24009KT 28/15 A3017 RMK A01 T02800146  RH  044%=      5-min Rain = 0
KUM1 201431Z 24010KT 28/15 A3017 RMK A01 T02800146  RH  044%=      5-min Rain = 0
KUM1 201432Z 24009KT 28/15 A3017 RMK A01 T02800145  RH  044%=      5-min Rain = 0
KUM1 201433Z 25009KT 28/15 A3017 RMK A01 T02790146  RH  044%=      5-min Rain = 0
KUM1 201434Z 25008KT 28/15 A3017 RMK A01 T02790147  RH  044%=      5-min Rain = 0
KUM1 201435Z 25009KT 28/15 A3017 RMK A01 T02790148  RH  045%=      5-min Rain = 0
KUM1 201436Z 25008KT 28/15 A3017 RMK A01 T02790147  RH  045%=      5-min Rain = 0
KUM1 201437Z 25008KT 28/15 A3017 RMK A01 T02780148  RH  045%=      5-min Rain = 0
KUM1 201438Z 24008KT 28/15 A3017 RMK A01 T02780148  RH  045%=      5-min Rain = 0
KUM1 201439Z 24009KT 28/15 A3017 RMK A01 T02790148  RH  045%=      5-min Rain = 0
KUM1 201440Z 24010KT 28/15 A3017 RMK A01 T02790147  RH  045%=      5-min Rain = 0
KUM1 201441Z 24012KT 28/15 A3017 RMK A01 T02790145  RH  044%=      5-min Rain = 0
KUM1 201442Z 25009KT 28/15 A3017 RMK A01 T02790145  RH  044%=      5-min Rain = 0
KUM1 201443Z 25009KT 28/15 A3017 RMK A01 T02790146  RH  044%=      5-min Rain = 0
KUM1 201444Z 25010KT 28/15 A3017 RMK A01 T02790145  RH  044%=      5-min Rain = 0
KUM1 201445Z 25010KT 28/15 A3017 RMK A01 T02810147  RH  044%=      5-min Rain = 0
KUM1 201446Z 25009KT 28/15 A3017 RMK A01 T02810148  RH  044%=      5-min Rain = 0
KUM1 201447Z 25011KT 28/15 A3017 RMK A01 T02810147  RH  044%=      5-min Rain = 0
KUM1 201448Z 25010KT 28/15 A3017 RMK A01 T02820147  RH  044%=      5-min Rain = 0
KUM1 201449Z 26010KT 28/15 A3017 RMK A01 T02820146  RH  044%=      5-min Rain = 0
KUM1 201450Z 26008KT 28/15 A3017 RMK A01 T02830146  RH  043%=      5-min Rain = 0
KUM1 201451Z 25007KT 28/15 A3017 RMK A01 T02840147  RH  043%=      5-min Rain = 0
KUM1 201452Z 25007KT 28/15 A3017 RMK A01 T02840149  RH  044%=      5-min Rain = 0
KUM1 201453Z 26009KT 28/15 A3017 RMK A01 T02840148  RH  043%=      5-min Rain = 0
KUM1 201454Z 25008KT 28/15 A3017 RMK A01 T02840148  RH  044%=      5-min Rain = 0
KUM1 201455Z 25007KT 28/15 A3017 RMK A01 T02840149  RH  044%=      5-min Rain = 0
KUM1 201456Z 26009KT 28/15 A3017 RMK A01 T02840148  RH  043%=      5-min Rain = 0
KUM1 201457Z 25008KT 28/15 A3017 RMK A01 T02840147  RH  043%=      5-min Rain = 0
KUM1 201458Z 25009G15KT 28/15 A3017 RMK A01 T02840147  RH  043%=      5-min Rain = 0
KUM1 201459Z 26012KT 29/15 A3017 RMK A01 T02850145  RH  042%=      5-min Rain = 0
KUM1 201500Z 25012KT 29/14 A3017 RMK A01 T02850143  RH  042%=      5-min Rain = 0
KUM1 201501Z 25011KT 29/14 A3017 RMK A01 T02850144  RH  042%=      5-min Rain = 0
KUM1 201502Z 25010KT 29/15 A3017 RMK A01 T02850145  RH  042%=      5-min Rain = 0
KUM1 201503Z 25011KT 29/15 A3017 RMK A01 T02850145  RH  042%=      5-min Rain = 0
KUM1 201504Z 25011KT 29/14 A3017 RMK A01 T02850144  RH  042%=      5-min Rain = 0
KUM1 201505Z 25010KT 28/14 A3017 RMK A01 T02840144  RH  042%=      5-min Rain = 0
KUM1 201506Z 25011KT 28/15 A3017 RMK A01 T02840145  RH  043%=      5-min Rain = 0
KUM1 201507Z 26010KT 28/15 A3017 RMK A01 T02840145  RH  043%=      5-min Rain = 0
KUM1 201508Z 25010KT 29/15 A3017 RMK A01 T02850146  RH  042%=      5-min Rain = 0
KUM1 201509Z 25011KT 29/15 A3017 RMK A01 T02860146  RH  042%=      5-min Rain = 0
KUM1 201510Z 25009KT 29/15 A3017 RMK A01 T02860146  RH  043%=      5-min Rain = 0
KUM1 201511Z 25011KT 29/15 A3017 RMK A01 T02860146  RH  043%=      5-min Rain = 0
KUM1 201512Z 25010KT 29/15 A3017 RMK A01 T02850146  RH  043%=      5-min Rain = 0
KUM1 201513Z 26010KT 29/15 A3017 RMK A01 T02850147  RH  043%=      5-min Rain = 0
KUM1 201514Z 26009KT 29/15 A3017 RMK A01 T02850145  RH  042%=      5-min Rain = 0
KUM1 201515Z 27011KT 29/15 A3017 RMK A01 T02850145  RH  042%=      5-min Rain = 0
KUM1 201516Z 26010KT 29/14 A3017 RMK A01 T02850144  RH  042%=      5-min Rain = 0
KUM1 201517Z 27011KT 29/14 A3017 RMK A01 T02850144  RH  042%=      5-min Rain = 0
KUM1 201518Z 27011KT 29/14 A3017 RMK A01 T02850144  RH  042%=      5-min Rain = 0
KUM1 201519Z 26010KT 28/14 A3017 RMK A01 T02840143  RH  042%=      5-min Rain = 0
KUM1 201520Z 26011KT 28/14 A3018 RMK A01 T02840143  RH  042%=      5-min Rain = 0
KUM1 201521Z 26012KT 28/14 A3018 RMK A01 T02840143  RH  042%=      5-min Rain = 0
KUM1 201522Z 26011KT 28/14 A3018 RMK A01 T02830142  RH  042%=      5-min Rain = 0
KUM1 201523Z 26009KT 28/14 A3018 RMK A01 T02820143  RH  043%=      5-min Rain = 0
KUM1 201524Z 26010KT 28/14 A3018 RMK A01 T02830144  RH  043%=      5-min Rain = 0
KUM1 201525Z 26010KT 28/15 A3018 RMK A01 T02840145  RH  043%=      5-min Rain = 0
KUM1 201526Z 26011KT 28/15 A3018 RMK A01 T02840145  RH  043%=      5-min Rain = 0
KUM1 201527Z 26008KT 28/15 A3018 RMK A01 T02840145  RH  043%=      5-min Rain = 0
KUM1 201528Z 27009KT 28/15 A3018 RMK A01 T02840146  RH  043%=      5-min Rain = 0
KUM1 201529Z 28009KT 29/15 A3018 RMK A01 T02850146  RH  042%=      5-min Rain = 0
KUM1 201530Z 28012KT 29/15 A3018 RMK A01 T02850145  RH  042%=      5-min Rain = 0
KUM1 201531Z 28010KT 29/15 A3018 RMK A01 T02850145  RH  042%=      5-min Rain = 0
KUM1 201532Z 27011KT 29/15 A3018 RMK A01 T02850145  RH  042%=      5-min Rain = 0
KUM1 201533Z 27009KT 29/15 A3018 RMK A01 T02860145  RH  042%=      5-min Rain = 0
KUM1 201534Z 29009KT 29/15 A3018 RMK A01 T02880147  RH  042%=      5-min Rain = 0
KUM1 201535Z 27010KT 29/15 A3018 RMK A01 T02900147  RH  042%=      5-min Rain = 0
KUM1 201536Z 27009KT 29/15 A3018 RMK A01 T02890146  RH  042%=      5-min Rain = 0
KUM1 201537Z 28008KT 29/15 A3018 RMK A01 T02890147  RH  042%=      5-min Rain = 0
KUM1 201538Z 28008KT 29/15 A3018 RMK A01 T02910148  RH  042%=      5-min Rain = 0
KUM1 201539Z 27008KT 29/15 A3018 RMK A01 T02940149  RH  041%=      5-min Rain = 0
KUM1 201540Z 28009KT 30/15 A3018 RMK A01 T02960149  RH  041%=      5-min Rain = 0
KUM1 201541Z 27008KT 30/15 A3018 RMK A01 T02970149  RH  041%=      5-min Rain = 0
KUM1 201542Z 27008KT 30/15 A3019 RMK A01 T02960149  RH  041%=      5-min Rain = 0
KUM1 201543Z 29009KT 30/15 A3019 RMK A01 T02950149  RH  041%=      5-min Rain = 0
KUM1 201544Z 28010KT 30/15 A3019 RMK A01 T02950149  RH  041%=      5-min Rain = 0
KUM1 201545Z 28011KT 30/15 A3019 RMK A01 T02950149  RH  041%=      5-min Rain = 0
KUM1 201546Z 28009KT 30/15 A3019 RMK A01 T02950149  RH  041%=      5-min Rain = 0
KUM1 201547Z 28010KT 29/15 A3019 RMK A01 T02930149  RH  042%=      5-min Rain = 0
KUM1 201548Z 28011KT 29/15 A3019 RMK A01 T02930150  RH  042%=      5-min Rain = 0
KUM1 201549Z 27009KT 29/15 A3019 RMK A01 T02930150  RH  042%=      5-min Rain = 0
KUM1 201550Z 27009KT 29/15 A3019 RMK A01 T02930150  RH  042%=      5-min Rain = 0
KUM1 201551Z 27008KT 29/15 A3019 RMK A01 T02930150  RH  042%=      5-min Rain = 0
KUM1 201552Z 28010KT 29/15 A3019 RMK A01 T02940151  RH  042%=      5-min Rain = 0
KUM1 201553Z 27009KT 30/15 A3019 RMK A01 T02960151  RH  041%=      5-min Rain = 0
KUM1 201554Z 28010KT 30/15 A3019 RMK A01 T02970151  RH  041%=      5-min Rain = 0
KUM1 201555Z 28011KT 30/15 A3019 RMK A01 T02970151  RH  041%=      5-min Rain = 0
KUM1 201556Z 29010KT 30/15 A3019 RMK A01 T02970151  RH  041%=      5-min Rain = 0
KUM1 201557Z 27009KT 30/15 A3019 RMK A01 T02970152  RH  041%=      5-min Rain = 0
KUM1 201558Z 27009KT 30/15 A3019 RMK A01 T02990152  RH  041%=      5-min Rain = 0
KUM1 201559Z 26008KT 30/15 A3019 RMK A01 T02990152  RH  041%=      5-min Rain = 0
KUM1 201600Z 24008KT 30/15 A3019 RMK A01 T02980153  RH  041%=      5-min Rain = 0
KUM1 201601Z 25012KT 30/15 A3019 RMK A01 T02980152  RH  041%=      5-min Rain = 0
KUM1 201602Z 26012KT 30/15 A3019 RMK A01 T02980151  RH  041%=      5-min Rain = 0
KUM1 201603Z 25011KT 30/15 A3019 RMK A01 T03000152  RH  041%=      5-min Rain = 0
KUM1 201604Z 24009G14KT 30/15 A3019 RMK A01 T03000152  RH  041%=      5-min Rain = 0
KUM1 201605Z 24011KT 30/15 A3019 RMK A01 T03000152  RH  041%=      5-min Rain = 0
KUM1 201606Z 24012KT 30/15 A3019 RMK A01 T02990151  RH  041%=      5-min Rain = 0
KUM1 201607Z 24012KT 30/15 A3019 RMK A01 T02970152  RH  041%=      5-min Rain = 0
KUM1 201608Z 24009KT 30/15 A3019 RMK A01 T02970151  RH  041%=      5-min Rain = 0
KUM1 201609Z 23007KT 30/15 A3019 RMK A01 T02980152  RH  041%=      5-min Rain = 0
KUM1 201610Z 22007KT 30/15 A3019 RMK A01 T02990152  RH  041%=      5-min Rain = 0
KUM1 201611Z 23006KT 30/15 A3019 RMK A01 T02990152  RH  041%=      5-min Rain = 0
KUM1 201612Z 24005KT 30/15 A3019 RMK A01 T02990154  RH  041%=      5-min Rain = 0
KUM1 201613Z 26007KT 30/16 A3019 RMK A01 T03040160  RH  042%=      5-min Rain = 0
KUM1 201614Z 27010KT 31/15 A3018 RMK A01 T03120154  RH  039%=      5-min Rain = 0
KUM1 201615Z 27008KT 32/15 A3018 RMK A01 T03150152  RH  037%=      5-min Rain = 0
KUM1 201616Z 26011KT 31/15 A3018 RMK A01 T03140152  RH  037%=      5-min Rain = 0
KUM1 201617Z 24011KT 32/15 A3018 RMK A01 T03150153  RH  038%=      5-min Rain = 0
KUM1 201618Z 25008KT 32/15 A3018 RMK A01 T03160154  RH  038%=      5-min Rain = 0
KUM1 201619Z 27010KT 32/15 A3018 RMK A01 T03180153  RH  037%=      5-min Rain = 0
KUM1 201620Z 26007KT 32/15 A3018 RMK A01 T03170152  RH  037%=      5-min Rain = 0
KUM1 201621Z 27010G15KT 32/15 A3018 RMK A01 T03180154  RH  037%=      5-min Rain = 0
KUM1 201622Z 27013KT 32/15 A3018 RMK A01 T03200153  RH  037%=      5-min Rain = 0
KUM1 201623Z 26011KT 32/15 A3018 RMK A01 T03170152  RH  037%=      5-min Rain = 0
KUM1 201624Z 27013KT 31/15 A3018 RMK A01 T03140152  RH  037%=      5-min Rain = 0
KUM1 201625Z 26014KT 32/15 A3018 RMK A01 T03150153  RH  037%=      5-min Rain = 0
KUM1 201626Z 25011KT 31/15 A3018 RMK A01 T03140152  RH  038%=      5-min Rain = 0
KUM1 201627Z 25009KT 31/15 A3018 RMK A01 T03130152  RH  038%=      5-min Rain = 0
KUM1 201628Z 26011KT 31/15 A3018 RMK A01 T03130152  RH  038%=      5-min Rain = 0
KUM1 201629Z 24010KT 31/15 A3018 RMK A01 T03130153  RH  038%=      5-min Rain = 0
KUM1 201630Z 24008KT 31/15 A3018 RMK A01 T03130154  RH  038%=      5-min Rain = 0
KUM1 201631Z 24008KT 31/16 A3018 RMK A01 T03130156  RH  039%=      5-min Rain = 0
KUM1 201632Z 25008KT 31/16 A3018 RMK A01 T03140156  RH  039%=      5-min Rain = 0
KUM1 201633Z 25010KT 31/16 A3018 RMK A01 T03140156  RH  039%=      5-min Rain = 0
KUM1 201634Z 23010KT 31/16 A3018 RMK A01 T03140158  RH  039%=      5-min Rain = 0
KUM1 201635Z 22009KT 32/16 A3018 RMK A01 T03160160  RH  039%=      5-min Rain = 0
KUM1 201636Z 22011KT 32/16 A3018 RMK A01 T03180158  RH  038%=      5-min Rain = 0
KUM1 201637Z 23010KT 32/16 A3018 RMK A01 T03180157  RH  038%=      5-min Rain = 0
KUM1 201638Z 22010KT 32/16 A3018 RMK A01 T03170157  RH  038%=      5-min Rain = 0
KUM1 201639Z 23010KT 32/16 A3018 RMK A01 T03160160  RH  039%=      5-min Rain = 0
KUM1 201640Z 23008KT 31/16 A3018 RMK A01 T03140157  RH  039%=      5-min Rain = 0
KUM1 201641Z 22010KT 32/16 A3018 RMK A01 T03150158  RH  039%=      5-min Rain = 0
KUM1 201642Z 22011KT 32/16 A3018 RMK A01 T03170157  RH  038%=      5-min Rain = 0
KUM1 201643Z 22009KT 32/16 A3018 RMK A01 T03160157  RH  038%=      5-min Rain = 0
KUM1 201644Z 21009KT 32/16 A3018 RMK A01 T03180156  RH  038%=      5-min Rain = 0
KUM1 201645Z 22009KT 32/16 A3018 RMK A01 T03180155  RH  037%=      5-min Rain = 0
KUM1 201646Z 21010KT 32/15 A3018 RMK A01 T03160154  RH  038%=      5-min Rain = 0
KUM1 201647Z 21011KT 32/15 A3018 RMK A01 T03150154  RH  038%=      5-min Rain = 0
KUM1 201648Z 22008KT 31/15 A3018 RMK A01 T03140154  RH  038%=      5-min Rain = 0
KUM1 201649Z 24008KT 32/16 A3018 RMK A01 T03170160  RH  039%=      5-min Rain = 0
KUM1 201650Z 24006KT 32/16 A3018 RMK A01 T03180161  RH  039%=      5-min Rain = 0
KUM1 201651Z 25007KT 32/16 A3018 RMK A01 T03200160  RH  038%=      5-min Rain = 0
KUM1 201652Z 22007KT 32/16 A3018 RMK A01 T03200161  RH  038%=      5-min Rain = 0
KUM1 201653Z 22009KT 32/16 A3018 RMK A01 T03200159  RH  038%=      5-min Rain = 0
KUM1 201654Z 22008KT 32/16 A3018 RMK A01 T03170155  RH  038%=      5-min Rain = 0
KUM1 201655Z 21008KT 32/16 A3018 RMK A01 T03150158  RH  039%=      5-min Rain = 0
KUM1 201656Z 22008KT 32/16 A3018 RMK A01 T03150157  RH  038%=      5-min Rain = 0
KUM1 201657Z 21007KT 32/16 A3018 RMK A01 T03160156  RH  038%=      5-min Rain = 0
KUM1 201658Z 21006KT 32/16 A3018 RMK A01 T03160156  RH  038%=      5-min Rain = 0
KUM1 201659Z 21006KT 32/16 A3018 RMK A01 T03160157  RH  038%=      5-min Rain = 0
KUM1 201700Z 23007KT 32/16 A3018 RMK A01 T03180162  RH  039%=      5-min Rain = 0
KUM1 201701Z 24009KT 32/16 A3018 RMK A01 T03200163  RH  039%=      5-min Rain = 0
KUM1 201702Z 23011KT 32/16 A3018 RMK A01 T03200164  RH  039%=      5-min Rain = 0
KUM1 201703Z 22009KT 32/16 A3018 RMK A01 T03170159  RH  039%=      5-min Rain = 0
KUM1 201704Z 22006KT 32/16 A3018 RMK A01 T03150158  RH  039%=      5-min Rain = 0
KUM1 201705Z 23010KT 32/16 A3018 RMK A01 T03150160  RH  039%=      5-min Rain = 0
KUM1 201706Z 24010KT 31/16 A3018 RMK A01 T03140161  RH  040%=      5-min Rain = 0
KUM1 201707Z 24011KT 31/16 A3018 RMK A01 T03130159  RH  039%=      5-min Rain = 0
KUM1 201708Z 23008KT 31/16 A3018 RMK A01 T03120162  RH  040%=      5-min Rain = 0
KUM1 201709Z 22008KT 31/16 A3018 RMK A01 T03130162  RH  040%=      5-min Rain = 0
KUM1 201710Z 22007KT 32/16 A3017 RMK A01 T03150161  RH  040%=      5-min Rain = 0
KUM1 201711Z 22010KT 32/16 A3017 RMK A01 T03170161  RH  039%=      5-min Rain = 0
KUM1 201712Z 22009KT 32/16 A3017 RMK A01 T03170160  RH  039%=      5-min Rain = 0
KUM1 201713Z 24009KT 32/16 A3017 RMK A01 T03170160  RH  039%=      5-min Rain = 0
KUM1 201714Z 24007KT 32/16 A3017 RMK A01 T03160158  RH  038%=      5-min Rain = 0
KUM1 201715Z 23007KT 31/16 A3017 RMK A01 T03130157  RH  039%=      5-min Rain = 0
KUM1 201716Z 22009KT 31/16 A3017 RMK A01 T03130162  RH  040%=      5-min Rain = 0
KUM1 201717Z 22010KT 32/16 A3017 RMK A01 T03160160  RH  039%=      5-min Rain = 0
KUM1 201718Z 23009KT 32/16 A3017 RMK A01 T03150157  RH  039%=      5-min Rain = 0
KUM1 201719Z 23010KT 31/16 A3017 RMK A01 T03130160  RH  040%=      5-min Rain = 0
KUM1 201720Z 22010KT 31/16 A3017 RMK A01 T03140162  RH  040%=      5-min Rain = 0
KUM1 201721Z 23008KT 32/16 A3017 RMK A01 T03150159  RH  039%=      5-min Rain = 0
KUM1 201722Z 23007KT 32/16 A3017 RMK A01 T03160160  RH  039%=      5-min Rain = 0
KUM1 201723Z 22007KT 32/16 A3017 RMK A01 T03180164  RH  040%=      5-min Rain = 0
KUM1 201724Z 23010KT 32/16 A3017 RMK A01 T03200162  RH  039%=      5-min Rain = 0
KUM1 201725Z 25007KT 32/16 A3017 RMK A01 T03190162  RH  039%=      5-min Rain = 0
KUM1 201726Z 24010KT 32/16 A3017 RMK A01 T03220162  RH  038%=      5-min Rain = 0
KUM1 201727Z 23010KT 32/16 A3017 RMK A01 T03240161  RH  038%=      5-min Rain = 0
KUM1 201728Z 24010KT 32/16 A3017 RMK A01 T03230161  RH  038%=      5-min Rain = 0
KUM1 201729Z 23006KT 32/16 A3017 RMK A01 T03220160  RH  038%=      5-min Rain = 0
KUM1 201730Z 22008KT 32/16 A3017 RMK A01 T03230161  RH  038%=      5-min Rain = 0
KUM1 201731Z 23008KT 32/16 A3017 RMK A01 T03230162  RH  038%=      5-min Rain = 0
KUM1 201732Z 23010KT 32/16 A3017 RMK A01 T03230164  RH  039%=      5-min Rain = 0
KUM1 201733Z 24010KT 32/16 A3017 RMK A01 T03240161  RH  038%=      5-min Rain = 0
KUM1 201734Z 23011KT 32/16 A3017 RMK A01 T03210161  RH  038%=      5-min Rain = 0
KUM1 201735Z 22010KT 32/16 A3017 RMK A01 T03200161  RH  038%=      5-min Rain = 0
KUM1 201736Z 21007KT 32/16 A3017 RMK A01 T03190158  RH  038%=      5-min Rain = 0
KUM1 201737Z 23007KT 32/16 A3017 RMK A01 T03180162  RH  039%=      5-min Rain = 0
KUM1 201738Z 23007KT 32/16 A3017 RMK A01 T03200164  RH  039%=      5-min Rain = 0
KUM1 201739Z 23007KT 32/17 A3017 RMK A01 T03210166  RH  039%=      5-min Rain = 0
KUM1 201740Z 22011KT 32/17 A3017 RMK A01 T03230169  RH  040%=      5-min Rain = 0
KUM1 201741Z 22012KT 33/16 A3017 RMK A01 T03250163  RH  038%=      5-min Rain = 0
KUM1 201742Z 23012KT 33/17 A3017 RMK A01 T03250165  RH  038%=      5-min Rain = 0
KUM1 201743Z 22010KT 32/17 A3017 RMK A01 T03220166  RH  039%=      5-min Rain = 0
KUM1 201744Z 23011KT 32/17 A3017 RMK A01 T03210165  RH  039%=      5-min Rain = 0
KUM1 201745Z 23011KT 32/16 A3017 RMK A01 T03210160  RH  038%=      5-min Rain = 0
KUM1 201746Z 22011KT 32/16 A3017 RMK A01 T03180162  RH  039%=      5-min Rain = 0
KUM1 201747Z 23010KT 32/16 A3017 RMK A01 T03200161  RH  038%=      5-min Rain = 0
KUM1 201748Z 24008KT 32/16 A3017 RMK A01 T03190160  RH  038%=      5-min Rain = 0
KUM1 201749Z 24009KT 32/16 A3017 RMK A01 T03200161  RH  038%=      5-min Rain = 0
KUM1 201750Z 24010KT 32/16 A3017 RMK A01 T03190161  RH  039%=      5-min Rain = 0
KUM1 201751Z 23010KT 32/16 A3017 RMK A01 T03190159  RH  038%=      5-min Rain = 0
KUM1 201752Z 23010KT 32/16 A3017 RMK A01 T03180164  RH  039%=      5-min Rain = 0
KUM1 201753Z 23012KT 32/16 A3017 RMK A01 T03210164  RH  039%=      5-min Rain = 0
KUM1 201754Z 23011KT 32/16 A3017 RMK A01 T03220164  RH  039%=      5-min Rain = 0
KUM1 201755Z 24011KT 33/16 A3017 RMK A01 T03260162  RH  037%=      5-min Rain = 0
KUM1 201756Z 23010KT 33/16 A3017 RMK A01 T03260160  RH  037%=      5-min Rain = 0
KUM1 201757Z 23009KT 32/16 A3017 RMK A01 T03220162  RH  038%=      5-min Rain = 0
KUM1 201758Z 22008G15KT 32/16 A3017 RMK A01 T03200163  RH  039%=      5-min Rain = 0
KUM1 201759Z 23012KT 32/16 A3017 RMK A01 T03180163  RH  039%=      5-min Rain = 0
KUM1 201800Z 24010KT 32/16 A3017 RMK A01 T03170161  RH  039%=      5-min Rain = 0
KUM1 201801Z 24009G14KT 32/16 A3017 RMK A01 T03180160  RH  039%=      5-min Rain = 0
KUM1 201802Z 23011KT 32/16 A3017 RMK A01 T03200161  RH  038%=      5-min Rain = 0
KUM1 201803Z 22011KT 32/16 A3017 RMK A01 T03200161  RH  038%=      5-min Rain = 0
KUM1 201804Z 22011KT 32/16 A3017 RMK A01 T03200161  RH  039%=      5-min Rain = 0
KUM1 201805Z 22010KT 32/16 A3017 RMK A01 T03190162  RH  039%=      5-min Rain = 0
KUM1 201806Z 23009KT 32/16 A3017 RMK A01 T03190159  RH  038%=      5-min Rain = 0
KUM1 201807Z 22009KT 32/16 A3017 RMK A01 T03170162  RH  039%=      5-min Rain = 0
KUM1 201808Z 22009KT 32/16 A3017 RMK A01 T03170161  RH  039%=      5-min Rain = 0
KUM1 201809Z 23010KT 32/16 A3017 RMK A01 T03170158  RH  038%=      5-min Rain = 0
KUM1 201810Z 24010KT 32/16 A3016 RMK A01 T03170159  RH  039%=      5-min Rain = 0
KUM1 201811Z 21007KT 32/16 A3016 RMK A01 T03160162  RH  040%=      5-min Rain = 0
KUM1 201812Z 22012KT 32/16 A3016 RMK A01 T03200162  RH  039%=      5-min Rain = 0
KUM1 201813Z 21012KT 33/16 A3016 RMK A01 T03270159  RH  037%=      5-min Rain = 0
KUM1 201814Z 22011KT 33/16 A3016 RMK A01 T03310157  RH  035%=      5-min Rain = 0
KUM1 201815Z 22009KT 33/16 A3016 RMK A01 T03310157  RH  035%=      5-min Rain = 0
KUM1 201816Z 21012KT 33/16 A3016 RMK A01 T03300156  RH  035%=      5-min Rain = 0
KUM1 201817Z 21009KT 33/15 A3016 RMK A01 T03300152  RH  034%=      5-min Rain = 0
KUM1 201818Z 22005KT 33/15 A3016 RMK A01 T03300152  RH  034%=      5-min Rain = 0
KUM1 201819Z 22007KT 33/16 A3016 RMK A01 T03300156  RH  035%=      5-min Rain = 0
KUM1 201820Z 21009KT 33/16 A3016 RMK A01 T03320158  RH  035%=      5-min Rain = 0
KUM1 201821Z 20011KT 33/16 A3016 RMK A01 T03340160  RH  035%=      5-min Rain = 0
KUM1 201822Z 20012KT 34/15 A3016 RMK A01 T03370149  RH  033%=      5-min Rain = 0
KUM1 201823Z 19011KT 33/15 A3016 RMK A01 T03340147  RH  032%=      5-min Rain = 0
KUM1 201824Z 20010KT 33/15 A3016 RMK A01 T03310147  RH  033%=      5-min Rain = 0
KUM1 201825Z 23012KT 33/15 A3016 RMK A01 T03300149  RH  034%=      5-min Rain = 0
KUM1 201826Z 22012KT 33/15 A3016 RMK A01 T03310152  RH  034%=      5-min Rain = 0
KUM1 201827Z 22010KT 33/15 A3016 RMK A01 T03290149  RH  034%=      5-min Rain = 0
KUM1 201828Z 21011KT 33/15 A3016 RMK A01 T03250149  RH  034%=      5-min Rain = 0
KUM1 201829Z 21012KT 33/15 A3016 RMK A01 T03260148  RH  034%=      5-min Rain = 0
KUM1 201830Z 21013KT 33/15 A3015 RMK A01 T03280146  RH  033%=      5-min Rain = 0
KUM1 201831Z 21012KT 33/15 A3015 RMK A01 T03270148  RH  034%=      5-min Rain = 0
KUM1 201832Z 21013KT 33/15 A3015 RMK A01 T03270146  RH  034%=      5-min Rain = 0
KUM1 201833Z 21010KT 33/15 A3015 RMK A01 T03260148  RH  034%=      5-min Rain = 0
KUM1 201834Z 20013KT 33/15 A3015 RMK A01 T03260145  RH  034%=      5-min Rain = 0
KUM1 201835Z 20014KT 33/14 A3015 RMK A01 T03270140  RH  032%=      5-min Rain = 0
KUM1 201836Z 20012KT 33/14 A3015 RMK A01 T03260140  RH  032%=      5-min Rain = 0
KUM1 201837Z 21010KT 32/14 A3015 RMK A01 T03240140  RH  033%=      5-min Rain = 0
KUM1 201838Z 19012KT 32/14 A3015 RMK A01 T03240143  RH  034%=      5-min Rain = 0
KUM1 201839Z 19012KT 33/14 A3015 RMK A01 T03270141  RH  033%=      5-min Rain = 0
KUM1 201840Z 20011G16KT 33/14 A3015 RMK A01 T03270142  RH  033%=      5-min Rain = 0
KUM1 201841Z 20013KT 33/14 A3015 RMK A01 T03290139  RH  032%=      5-min Rain = 0
KUM1 201842Z 19012KT 33/14 A3015 RMK A01 T03300137  RH  031%=      5-min Rain = 0
KUM1 201843Z 20012KT 33/14 A3015 RMK A01 T03320138  RH  031%=      5-min Rain = 0
KUM1 201844Z 20015KT 33/14 A3015 RMK A01 T03330137  RH  031%=      5-min Rain = 0
KUM1 201845Z 21012KT 33/14 A3015 RMK A01 T03330143  RH  032%=      5-min Rain = 0
KUM1 201846Z 20012KT 33/15 A3015 RMK A01 T03340146  RH  032%=      5-min Rain = 0
KUM1 201847Z 20009KT 34/15 A3014 RMK A01 T03370145  RH  032%=      5-min Rain = 0
KUM1 201848Z 20012KT 34/14 A3014 RMK A01 T03390144  RH  031%=      5-min Rain = 0
KUM1 201849Z 20012KT 34/14 A3014 RMK A01 T03390141  RH  030%=      5-min Rain = 0
KUM1 201850Z 20010KT 34/14 A3014 RMK A01 T03370142  RH  031%=      5-min Rain = 0
KUM1 201851Z 18013KT 34/14 A3014 RMK A01 T03390137  RH  030%=      5-min Rain = 0
KUM1 201852Z 19010KT 34/14 A3014 RMK A01 T03390136  RH  029%=      5-min Rain = 0
KUM1 201853Z 18011KT 34/14 A3014 RMK A01 T03380136  RH  030%=      5-min Rain = 0
KUM1 201854Z 19010KT 34/14 A3014 RMK A01 T03380139  RH  030%=      5-min Rain = 0
KUM1 201855Z 20012KT 34/14 A3014 RMK A01 T03420144  RH  030%=      5-min Rain = 0
KUM1 201856Z 19015KT 34/15 A3014 RMK A01 T03430145  RH  031%=      5-min Rain = 0
KUM1 201857Z 19013KT 35/15 A3014 RMK A01 T03450146  RH  030%=      5-min Rain = 0
KUM1 201858Z 18011KT 35/15 A3014 RMK A01 T03460146  RH  030%=      5-min Rain = 0
KUM1 201859Z 19014KT 34/14 A3014 RMK A01 T03420143  RH  030%=      5-min Rain = 0
KUM1 201900Z 19010KT 34/14 A3014 RMK A01 T03410141  RH  030%=      5-min Rain = 0
KUM1 201901Z 19013KT 34/13 A3014 RMK A01 T03420133  RH  028%=      5-min Rain = 0
KUM1 201902Z 20014KT 34/13 A3014 RMK A01 T03410133  RH  028%=      5-min Rain = 0
KUM1 201903Z 20013KT 34/14 A3014 RMK A01 T03390140  RH  030%=      5-min Rain = 0
KUM1 201904Z 20010KT 34/14 A3014 RMK A01 T03370144  RH  031%=      5-min Rain = 0
KUM1 201905Z 19014KT 34/14 A3014 RMK A01 T03370139  RH  030%=      5-min Rain = 0
KUM1 201906Z 18014KT 34/14 A3013 RMK A01 T03370135  RH  030%=      5-min Rain = 0
KUM1 201907Z 19012KT 34/14 A3014 RMK A01 T03360137  RH  030%=      5-min Rain = 0
KUM1 201908Z 18011KT 34/14 A3014 RMK A01 T03360140  RH  031%=      5-min Rain = 0
KUM1 201909Z 18015KT 34/13 A3013 RMK A01 T03380133  RH  029%=      5-min Rain = 0
KUM1 201910Z 19013KT 34/13 A3013 RMK A01 T03380128  RH  028%=      5-min Rain = 0
KUM1 201911Z 20013KT 34/13 A3013 RMK A01 T03370133  RH  029%=      5-min Rain = 0
KUM1 201912Z 21011KT 34/14 A3013 RMK A01 T03360136  RH  030%=      5-min Rain = 0
KUM1 201913Z 21012KT 34/14 A3013 RMK A01 T03380138  RH  030%=      5-min Rain = 0
KUM1 201914Z 19010KT 34/14 A3013 RMK A01 T03370139  RH  030%=      5-min Rain = 0
KUM1 201915Z 18010KT 34/14 A3013 RMK A01 T03380140  RH  030%=      5-min Rain = 0
KUM1 201916Z 19009KT 34/14 A3013 RMK A01 T03410141  RH  030%=      5-min Rain = 0
KUM1 201917Z 20011KT 34/14 A3013 RMK A01 T03420136  RH  029%=      5-min Rain = 0
KUM1 201918Z 20010KT 34/14 A3013 RMK A01 T03410136  RH  029%=      5-min Rain = 0
KUM1 201919Z 19011KT 34/13 A3013 RMK A01 T03400134  RH  029%=      5-min Rain = 0
KUM1 201920Z 18013KT 34/13 A3013 RMK A01 T03390130  RH  028%=      5-min Rain = 0
KUM1 201921Z 19014KT 34/13 A3013 RMK A01 T03380127  RH  028%=      5-min Rain = 0
KUM1 201922Z 19011KT 34/13 A3013 RMK A01 T03390127  RH  028%=      5-min Rain = 0
KUM1 201923Z 21010KT 34/13 A3013 RMK A01 T03400132  RH  028%=      5-min Rain = 0
KUM1 201924Z 20009KT 34/14 A3013 RMK A01 T03400135  RH  029%=      5-min Rain = 0
KUM1 201925Z 20012KT 34/14 A3013 RMK A01 T03400138  RH  030%=      5-min Rain = 0
KUM1 201926Z 20010KT 34/14 A3013 RMK A01 T03400135  RH  029%=      5-min Rain = 0
KUM1 201927Z 19013KT 34/13 A3013 RMK A01 T03410131  RH  028%=      5-min Rain = 0
KUM1 201928Z 20014KT 34/13 A3013 RMK A01 T03400132  RH  028%=      5-min Rain = 0
KUM1 201929Z 20013KT 34/14 A3013 RMK A01 T03390136  RH  029%=      5-min Rain = 0
KUM1 201930Z 19011KT 34/14 A3013 RMK A01 T03380136  RH  030%=      5-min Rain = 0
KUM1 201931Z 19011KT 34/14 A3013 RMK A01 T03370136  RH  030%=      5-min Rain = 0
KUM1 201932Z 19009KT 34/14 A3013 RMK A01 T03380139  RH  030%=      5-min Rain = 0
KUM1 201933Z 19010KT 34/13 A3013 RMK A01 T03410134  RH  029%=      5-min Rain = 0
KUM1 201934Z 19010KT 35/13 A3013 RMK A01 T03460131  RH  027%=      5-min Rain = 0
KUM1 201935Z 20012KT 35/13 A3013 RMK A01 T03480129  RH  027%=      5-min Rain = 0
KUM1 201936Z 22012KT 35/13 A3013 RMK A01 T03470127  RH  027%=      5-min Rain = 0
KUM1 201937Z 21010KT 34/13 A3013 RMK A01 T03440125  RH  027%=      5-min Rain = 0
KUM1 201938Z 20011KT 34/13 A3013 RMK A01 T03440131  RH  028%=      5-min Rain = 0
KUM1 201939Z 19011KT 35/13 A3013 RMK A01 T03460133  RH  028%=      5-min Rain = 0
KUM1 201940Z 19011KT 35/13 A3013 RMK A01 T03470133  RH  028%=      5-min Rain = 0
KUM1 201941Z 20009KT 35/13 A3013 RMK A01 T03460133  RH  028%=      5-min Rain = 0
KUM1 201942Z 20012KT 35/14 A3013 RMK A01 T03450135  RH  028%=      5-min Rain = 0
KUM1 201943Z 21013KT 35/14 A3012 RMK A01 T03460136  RH  028%=      5-min Rain = 0
KUM1 201944Z 21011KT 35/14 A3012 RMK A01 T03450138  RH  029%=      5-min Rain = 0
KUM1 201945Z 22011KT 34/14 A3012 RMK A01 T03440142  RH  030%=      5-min Rain = 0
KUM1 201946Z 20011KT 34/15 A3012 RMK A01 T03430145  RH  030%=      5-min Rain = 0
KUM1 201947Z 18012KT 35/14 A3012 RMK A01 T03460140  RH  029%=      5-min Rain = 0
KUM1 201948Z 19008KT 35/14 A3012 RMK A01 T03460139  RH  029%=      5-min Rain = 0
KUM1 201949Z 21013KT 35/14 A3012 RMK A01 T03460136  RH  028%=      5-min Rain = 0
KUM1 201950Z 20011KT 35/13 A3012 RMK A01 T03510132  RH  027%=      5-min Rain = 0
KUM1 201951Z 19012KT 36/13 A3012 RMK A01 T03550129  RH  026%=      5-min Rain = 0
KUM1 201952Z 20010KT 35/13 A3012 RMK A01 T03520125  RH  025%=      5-min Rain = 0
KUM1 201953Z 21010KT 35/13 A3012 RMK A01 T03510126  RH  026%=      5-min Rain = 0
KUM1 201954Z 21013KT 35/13 A3012 RMK A01 T03520125  RH  025%=      5-min Rain = 0
KUM1 201955Z 21012KT 35/11 A3012 RMK A01 T03510112  RH  023%=      5-min Rain = 0
KUM1 201956Z 20014KT 35/12 A3012 RMK A01 T03490115  RH  024%=      5-min Rain = 0
KUM1 201957Z 20012KT 35/12 A3012 RMK A01 T03480122  RH  026%=      5-min Rain = 0
KUM1 201958Z 21012KT 35/12 A3012 RMK A01 T03470124  RH  026%=      5-min Rain = 0
KUM1 201959Z 20012KT 35/12 A3012 RMK A01 T03470122  RH  026%=      5-min Rain = 0
KUM1 202000Z 19011KT 35/12 A3012 RMK A01 T03470118  RH  025%=      5-min Rain = 0
KUM1 202001Z 19011KT 35/12 A3012 RMK A01 T03470121  RH  025%=      5-min Rain = 0
KUM1 202002Z 19012KT 35/12 A3012 RMK A01 T03490123  RH  026%=      5-min Rain = 0
KUM1 202003Z 19011KT 35/12 A3012 RMK A01 T03490118  RH  025%=      5-min Rain = 0
KUM1 202004Z 18010KT 35/12 A3012 RMK A01 T03480118  RH  025%=      5-min Rain = 0
KUM1 202005Z 18011KT 35/12 A3012 RMK A01 T03470120  RH  025%=      5-min Rain = 0
KUM1 202006Z 19010KT 34/12 A3012 RMK A01 T03440121  RH  026%=      5-min Rain = 0
KUM1 202007Z 19009KT 34/12 A3012 RMK A01 T03440122  RH  026%=      5-min Rain = 0
KUM1 202008Z 21009KT 35/12 A3012 RMK A01 T03450122  RH  026%=      5-min Rain = 0
KUM1 202009Z 22009KT 35/13 A3012 RMK A01 T03450127  RH  027%=      5-min Rain = 0
KUM1 202010Z 20010KT 35/13 A3012 RMK A01 T03450127  RH  027%=      5-min Rain = 0
KUM1 202011Z 20012KT 34/13 A3012 RMK A01 T03440125  RH  027%=      5-min Rain = 0
KUM1 202012Z 19012KT 34/12 A3012 RMK A01 T03440123  RH  026%=      5-min Rain = 0
KUM1 202013Z 19011KT 34/12 A3012 RMK A01 T03420121  RH  026%=      5-min Rain = 0
KUM1 202014Z 19011KT 34/12 A3012 RMK A01 T03440115  RH  025%=      5-min Rain = 0
KUM1 202015Z 19008KT 35/11 A3012 RMK A01 T03460114  RH  024%=      5-min Rain = 0
KUM1 202016Z 20012KT 35/11 A3012 RMK A01 T03480112  RH  024%=      5-min Rain = 0
KUM1 202017Z 20013KT 35/11 A3012 RMK A01 T03470111  RH  024%=      5-min Rain = 0
KUM1 202018Z 20013KT 35/11 A3012 RMK A01 T03460114  RH  024%=      5-min Rain = 0
KUM1 202019Z 20011KT 35/11 A3012 RMK A01 T03450113  RH  024%=      5-min Rain = 0
KUM1 202020Z 21010KT 34/12 A3012 RMK A01 T03430115  RH  025%=      5-min Rain = 0
KUM1 202021Z 21011KT 34/12 A3011 RMK A01 T03440120  RH  026%=      5-min Rain = 0
KUM1 202022Z 20011KT 34/12 A3011 RMK A01 T03440123  RH  026%=      5-min Rain = 0
KUM1 202023Z 20009KT 34/12 A3011 RMK A01 T03430123  RH  026%=      5-min Rain = 0
KUM1 202024Z 20009KT 34/13 A3011 RMK A01 T03430125  RH  027%=      5-min Rain = 0
KUM1 202025Z 21012KT 34/13 A3011 RMK A01 T03440125  RH  027%=      5-min Rain = 0
KUM1 202026Z 19010KT 34/12 A3011 RMK A01 T03440122  RH  026%=      5-min Rain = 0
KUM1 202027Z 18010KT 35/12 A3011 RMK A01 T03450122  RH  026%=      5-min Rain = 0
KUM1 202028Z 19010KT 35/13 A3011 RMK A01 T03460125  RH  026%=      5-min Rain = 0
KUM1 202029Z 21011KT 35/12 A3011 RMK A01 T03470123  RH  026%=      5-min Rain = 0
KUM1 202030Z 20014KT 35/12 A3011 RMK A01 T03490119  RH  025%=      5-min Rain = 0
KUM1 202031Z 21012KT 35/12 A3011 RMK A01 T03490117  RH  025%=      5-min Rain = 0
KUM1 202032Z 20013KT 35/12 A3011 RMK A01 T03480116  RH  025%=      5-min Rain = 0
KUM1 202033Z 19012KT 35/12 A3011 RMK A01 T03470115  RH  024%=      5-min Rain = 0
KUM1 202034Z 19014KT 35/11 A3011 RMK A01 T03470108  RH  023%=      5-min Rain = 0
KUM1 202035Z 19015KT 35/10 A3011 RMK A01 T03470102  RH  022%=      5-min Rain = 0
KUM1 202036Z 19014KT 35/10 A3011 RMK A01 T03470103  RH  023%=      5-min Rain = 0
KUM1 202037Z 19013KT 35/11 A3011 RMK A01 T03470109  RH  024%=      5-min Rain = 0
KUM1 202038Z 18012KT 35/11 A3011 RMK A01 T03480109  RH  024%=      5-min Rain = 0
KUM1 202039Z 18012KT 35/11 A3011 RMK A01 T03490107  RH  023%=      5-min Rain = 0
KUM1 202040Z 18014KT 35/11 A3011 RMK A01 T03490108  RH  023%=      5-min Rain = 0
KUM1 202041Z 18013KT 35/11 A3011 RMK A01 T03490107  RH  023%=      5-min Rain = 0
KUM1 202042Z 18009KT 35/11 A3011 RMK A01 T03480106  RH  023%=      5-min Rain = 0
KUM1 202043Z 19011KT 35/11 A3011 RMK A01 T03500105  RH  023%=      5-min Rain = 0
KUM1 202044Z 18013KT 35/11 A3011 RMK A01 T03500105  RH  023%=      5-min Rain = 0
KUM1 202045Z 18014KT 35/11 A3011 RMK A01 T03500107  RH  023%=      5-min Rain = 0
KUM1 202046Z 18015KT 35/11 A301 RMK A01 T03490110  RH  023%=      5-min Rain = 0
KUM1 202047Z 19015KT 35/11 A301 RMK A01 T03490111  RH  024%=      5-min Rain = 0
KUM1 202048Z 20011KT 35/11 A301 RMK A01 T03470109  RH  023%=      5-min Rain = 0
KUM1 202049Z 18011KT 35/11 A301 RMK A01 T03470108  RH  024%=      5-min Rain = 0
KUM1 202050Z 18011KT 35/11 A301 RMK A01 T03480108  RH  023%=      5-min Rain = 0
KUM1 202051Z 19017KT 35/11 A301 RMK A01 T03500108  RH  023%=      5-min Rain = 0
KUM1 202052Z 19013KT 35/11 A301 RMK A01 T03490107  RH  023%=      5-min Rain = 0
KUM1 202053Z 19012KT 35/10 A301 RMK A01 T03470103  RH  023%=      5-min Rain = 0
KUM1 202054Z 18014KT 35/10 A301 RMK A01 T03450103  RH  023%=      5-min Rain = 0
KUM1 202055Z 20013KT 35/10 A301 RMK A01 T03460104  RH  023%=      5-min Rain = 0
KUM1 202056Z 19009KT 35/11 A301 RMK A01 T03470105  RH  023%=      5-min Rain = 0
KUM1 202057Z 19011G16KT 35/11 A301 RMK A01 T03500105  RH  023%=      5-min Rain = 0
KUM1 202058Z 20015KT 35/10 A301 RMK A01 T03520102  RH  022%=      5-min Rain = 0
KUM1 202059Z 20015KT 35/10 A301 RMK A01 T03520101  RH  022%=      5-min Rain = 0
KUM1 202100Z 20013KT 35/10 A301 RMK A01 T03510101  RH  022%=      5-min Rain = 0
KUM1 202101Z 20013KT 35/11 A301 RMK A01 T03510105  RH  023%=      5-min Rain = 0
KUM1 202102Z 19012KT 35/11 A301 RMK A01 T03500109  RH  023%=      5-min Rain = 0
KUM1 202103Z 17014KT 35/11 A301 RMK A01 T03500113  RH  024%=      5-min Rain = 0
KUM1 202104Z 16012KT 35/11 A301 RMK A01 T03500113  RH  024%=      5-min Rain = 0
KUM1 202105Z 18013G18KT 35/11 A301 RMK A01 T03490112  RH  024%=      5-min Rain = 0
KUM1 202106Z 18014G19KT 35/11 A301 RMK A01 T03520110  RH  023%=      5-min Rain = 0
KUM1 202107Z 18013KT 36/11 A301 RMK A01 T03560107  RH  022%=      5-min Rain = 0
KUM1 202108Z 19015KT 36/11 A301 RMK A01 T03560108  RH  022%=      5-min Rain = 0
KUM1 202109Z 19014KT 36/11 A301 RMK A01 T03550113  RH  023%=      5-min Rain = 0
KUM1 202110Z 19014KT 35/12 A301 RMK A01 T03540116  RH  024%=      5-min Rain = 0
KUM1 202111Z 19014KT 35/12 A301 RMK A01 T03520120  RH  025%=      5-min Rain = 0
KUM1 202112Z 18012KT 35/12 A3009 RMK A01 T03500121  RH  025%=      5-min Rain = 0
KUM1 202113Z 17013G18KT 35/12 A3009 RMK A01 T03510121  RH  025%=      5-min Rain = 0
KUM1 202114Z 17014KT 36/12 A3009 RMK A01 T03570120  RH  024%=      5-min Rain = 0
KUM1 202115Z 16013KT 36/12 A3009 RMK A01 T03600118  RH  023%=      5-min Rain = 0
KUM1 202116Z 17012KT 36/12 A3009 RMK A01 T03610116  RH  023%=      5-min Rain = 0
KUM1 202117Z 17014KT 37/11 A3009 RMK A01 T03660114  RH  022%=      5-min Rain = 0
KUM1 202118Z 17016G21KT 37/11 A3009 RMK A01 T03680112  RH  021%=      5-min Rain = 0
KUM1 202119Z 18018KT 37/12 A3009 RMK A01 T03650115  RH  022%=      5-min Rain = 0
KUM1 202120Z 18014KT 36/11 A3009 RMK A01 T03590112  RH  022%=      5-min Rain = 0
KUM1 202121Z 20014KT 36/12 A3009 RMK A01 T03570115  RH  023%=      5-min Rain = 0
KUM1 202122Z 19011G16KT 36/12 A3009 RMK A01 T03550115  RH  023%=      5-min Rain = 0
KUM1 202123Z 17013KT 36/12 A3009 RMK A01 T03580118  RH  024%=      5-min Rain = 0
KUM1 202124Z 17013KT 36/12 A3009 RMK A01 T03600117  RH  023%=      5-min Rain = 0
KUM1 202125Z 17016KT 36/12 A3009 RMK A01 T03620116  RH  023%=      5-min Rain = 0
KUM1 202126Z 18013G18KT 37/11 A3009 RMK A01 T03650110  RH  022%=      5-min Rain = 0
KUM1 202127Z 18015KT 37/11 A3009 RMK A01 T03670110  RH  021%=      5-min Rain = 0
KUM1 202128Z 20014KT 37/11 A3009 RMK A01 T03660111  RH  021%=      5-min Rain = 0
KUM1 202129Z 18014KT 37/11 A3009 RMK A01 T03660110  RH  021%=      5-min Rain = 0
KUM1 202130Z 17013KT 37/11 A3009 RMK A01 T03680110  RH  021%=      5-min Rain = 0
KUM1 202131Z 19012KT 37/11 A3009 RMK A01 T03710108  RH  021%=      5-min Rain = 0
KUM1 202132Z 18013KT 37/10 A3009 RMK A01 T03700101  RH  020%=      5-min Rain = 0
KUM1 202133Z 17018KT 37/11 A3009 RMK A01 T03690106  RH  020%=      5-min Rain = 0
KUM1 202134Z 17016KT 37/11 A3009 RMK A01 T03670106  RH  021%=      5-min Rain = 0
KUM1 202135Z 16015KT 37/11 A3009 RMK A01 T03660105  RH  021%=      5-min Rain = 0
KUM1 202136Z 17015G20KT 37/11 A3008 RMK A01 T03660107  RH  021%=      5-min Rain = 0
KUM1 202137Z 18019KT 37/11 A3008 RMK A01 T03670111  RH  021%=      5-min Rain = 0
KUM1 202138Z 17018KT 36/11 A3008 RMK A01 T03630110  RH  022%=      5-min Rain = 0
KUM1 202139Z 17015KT 36/11 A3008 RMK A01 T03630113  RH  022%=      5-min Rain = 0
KUM1 202140Z 17017KT 36/11 A3008 RMK A01 T03640109  RH  022%=      5-min Rain = 0
KUM1 202141Z 18013KT 36/11 A3008 RMK A01 T03640112  RH  022%=      5-min Rain = 0
KUM1 202142Z 17018KT 37/12 A3008 RMK A01 T03680118  RH  022%=      5-min Rain = 0
KUM1 202143Z 17015KT 37/12 A3008 RMK A01 T03660118  RH  022%=      5-min Rain = 0
KUM1 202144Z 17016KT 36/12 A3008 RMK A01 T03640118  RH  023%=      5-min Rain = 0
KUM1 202145Z 15015KT 37/12 A3008 RMK A01 T03650116  RH  022%=      5-min Rain = 0
KUM1 202146Z 15017KT 37/12 A3008 RMK A01 T03650119  RH  023%=      5-min Rain = 0
KUM1 202147Z 15017KT 36/12 A3008 RMK A01 T03640120  RH  023%=      5-min Rain = 0
KUM1 202148Z 17016KT 36/12 A3008 RMK A01 T03630121  RH  023%=      5-min Rain = 0
KUM1 202149Z 17016KT 36/12 A3008 RMK A01 T03640123  RH  024%=      5-min Rain = 0
KUM1 202150Z 16016KT 36/12 A3008 RMK A01 T03630122  RH  023%=      5-min Rain = 0
KUM1 202151Z 15016KT 36/12 A3008 RMK A01 T03620123  RH  024%=      5-min Rain = 0
KUM1 202152Z 17019KT 37/13 A3008 RMK A01 T03660126  RH  024%=      5-min Rain = 0
KUM1 202153Z 16018KT 36/13 A3008 RMK A01 T03630125  RH  024%=      5-min Rain = 0
KUM1 202154Z 16018KT 36/13 A3008 RMK A01 T03600125  RH  024%=      5-min Rain = 0
KUM1 202155Z 17013KT 36/13 A3008 RMK A01 T03590127  RH  025%=      5-min Rain = 0
KUM1 202156Z 16013G20KT 36/13 A3008 RMK A01 T03610126  RH  024%=      5-min Rain = 0
KUM1 202157Z 18018KT 36/12 A3008 RMK A01 T03630124  RH  024%=      5-min Rain = 0
KUM1 202158Z 17019KT 36/12 A3008 RMK A01 T03630123  RH  024%=      5-min Rain = 0
KUM1 202159Z 17018KT 36/12 A3008 RMK A01 T03610124  RH  024%=      5-min Rain = 0
KUM1 202200Z 16012KT 36/13 A3008 RMK A01 T03570125  RH  025%=      5-min Rain = 0
KUM1 202201Z 16016G21KT 36/13 A3008 RMK A01 T03590125  RH  025%=      5-min Rain = 0
KUM1 202202Z 16018KT 36/13 A3007 RMK A01 T03610126  RH  024%=      5-min Rain = 0
KUM1 202203Z 17013KT 36/13 A3008 RMK A01 T03620128  RH  025%=      5-min Rain = 0
KUM1 202204Z 18015G21KT 36/13 A3007 RMK A01 T03630127  RH  024%=      5-min Rain = 0
KUM1 202205Z 18014G21KT 36/13 A3007 RMK A01 T03620126  RH  024%=      5-min Rain = 0
KUM1 202206Z 17015KT 36/13 A3008 RMK A01 T03600128  RH  025%=      5-min Rain = 0
KUM1 202207Z 18015KT 36/13 A3007 RMK A01 T03580127  RH  025%=      5-min Rain = 0
KUM1 202208Z 16015G20KT 36/13 A3008 RMK A01 T03570127  RH  025%=      5-min Rain = 0
KUM1 202209Z 17017KT 36/13 A3007 RMK A01 T03610125  RH  024%=      5-min Rain = 0
KUM1 202210Z 17018KT 36/12 A3007 RMK A01 T03620121  RH  023%=      5-min Rain = 0
KUM1 202211Z 16015KT 36/12 A3007 RMK A01 T03610117  RH  023%=      5-min Rain = 0
KUM1 202212Z 18019KT 36/12 A3007 RMK A01 T03610116  RH  023%=      5-min Rain = 0
KUM1 202213Z 17015KT 36/12 A3007 RMK A01 T03620118  RH  023%=      5-min Rain = 0
KUM1 202214Z 17016KT 36/12 A3007 RMK A01 T03640120  RH  023%=      5-min Rain = 0
KUM1 202215Z 17014KT 36/12 A3007 RMK A01 T03610119  RH  023%=      5-min Rain = 0
KUM1 202216Z 18012KT 36/12 A3007 RMK A01 T03590119  RH  024%=      5-min Rain = 0
KUM1 202217Z 21013KT 36/12 A3007 RMK A01 T03590121  RH  024%=      5-min Rain = 0
KUM1 202218Z 19011KT 36/12 A3007 RMK A01 T03580122  RH  024%=      5-min Rain = 0
KUM1 202219Z 17016KT 36/12 A3007 RMK A01 T03600121  RH  024%=      5-min Rain = 0
KUM1 202220Z 17017KT 36/12 A3007 RMK A01 T03600117  RH  023%=      5-min Rain = 0
KUM1 202221Z 19015KT 36/12 A3007 RMK A01 T03600118  RH  023%=      5-min Rain = 0
KUM1 202222Z 18015KT 36/12 A3007 RMK A01 T03620118  RH  023%=      5-min Rain = 0
KUM1 202223Z 18014KT 36/12 A3007 RMK A01 T03620117  RH  023%=      5-min Rain = 0
KUM1 202224Z 19013G19KT 36/12 A3007 RMK A01 T03620116  RH  023%=      5-min Rain = 0
KUM1 202225Z 19015KT 36/11 A3007 RMK A01 T03620114  RH  022%=      5-min Rain = 0
KUM1 202226Z 17017KT 36/11 A3007 RMK A01 T03630111  RH  022%=      5-min Rain = 0
KUM1 202227Z 17016KT 36/10 A3007 RMK A01 T03610104  RH  021%=      5-min Rain = 0
KUM1 202228Z 18013KT 36/11 A3007 RMK A01 T03600106  RH  021%=      5-min Rain = 0
KUM1 202229Z 18019KT 36/11 A3007 RMK A01 T03620109  RH  022%=      5-min Rain = 0
KUM1 202230Z 18016KT 36/11 A3007 RMK A01 T03620106  RH  021%=      5-min Rain = 0
KUM1 202231Z 18019KT 36/11 A3007 RMK A01 T03610113  RH  022%=      5-min Rain = 0
KUM1 202232Z 18015KT 36/12 A3007 RMK A01 T03610117  RH  023%=      5-min Rain = 0
KUM1 202233Z 18015KT 36/12 A3007 RMK A01 T03620118  RH  023%=      5-min Rain = 0
KUM1 202234Z 19014KT 36/12 A3007 RMK A01 T03600118  RH  023%=      5-min Rain = 0
KUM1 202235Z 19014KT 36/12 A3007 RMK A01 T03600124  RH  024%=      5-min Rain = 0
KUM1 202236Z 19011KT 36/13 A3007 RMK A01 T03620125  RH  024%=      5-min Rain = 0
KUM1 202237Z 20016G22KT 37/12 A3007 RMK A01 T03650115  RH  022%=      5-min Rain = 0
KUM1 202238Z 20016G21KT 36/11 A3007 RMK A01 T03640108  RH  021%=      5-min Rain = 0
KUM1 202239Z 20019KT 36/10 A3007 RMK A01 T03620103  RH  021%=      5-min Rain = 0
KUM1 202240Z 20015KT 36/10 A3007 RMK A01 T03610104  RH  021%=      5-min Rain = 0
KUM1 202241Z 20015KT 36/11 A3007 RMK A01 T03630107  RH  021%=      5-min Rain = 0
KUM1 202242Z 21017KT 36/11 A3007 RMK A01 T03640111  RH  022%=      5-min Rain = 0
KUM1 202243Z 21016G21KT 36/12 A3007 RMK A01 T03600116  RH  023%=      5-min Rain = 0
KUM1 202244Z 20014KT 36/12 A3007 RMK A01 T03580116  RH  023%=      5-min Rain = 0
KUM1 202245Z 19011KT 36/12 A3007 RMK A01 T03580118  RH  024%=      5-min Rain = 0
KUM1 202246Z 18015G20KT 36/12 A3007 RMK A01 T03600118  RH  023%=      5-min Rain = 0
KUM1 202247Z 20017KT 36/11 A3007 RMK A01 T03610108  RH  022%=      5-min Rain = 0
KUM1 202248Z 20016KT 36/10 A3007 RMK A01 T03610099  RH  020%=      5-min Rain = 0
KUM1 202249Z 20015KT 36/10 A3007 RMK A01 T03620095  RH  020%=      5-min Rain = 0
KUM1 202250Z 19014KT 36/10 A3007 RMK A01 T03630100  RH  020%=      5-min Rain = 0
KUM1 202251Z 20014KT 36/10 A3007 RMK A01 T03630101  RH  020%=      5-min Rain = 0
KUM1 202252Z 20010G15KT 36/11 A3007 RMK A01 T03620105  RH  021%=      5-min Rain = 0
KUM1 202253Z 20014KT 36/11 A3007 RMK A01 T03610108  RH  022%=      5-min Rain = 0
KUM1 202254Z 18018KT 36/11 A3007 RMK A01 T03610108  RH  022%=      5-min Rain = 0
KUM1 202255Z 19013KT 36/11 A3007 RMK A01 T03600111  RH  022%=      5-min Rain = 0
KUM1 202256Z 20014KT 36/12 A3007 RMK A01 T03610115  RH  023%=      5-min Rain = 0
KUM1 202257Z 19013KT 36/11 A3007 RMK A01 T03600114  RH  023%=      5-min Rain = 0
KUM1 202258Z 19016KT 36/11 A3007 RMK A01 T03590113  RH  023%=      5-min Rain = 0
KUM1 202259Z 20014KT 36/11 A3007 RMK A01 T03590112  RH  022%=      5-min Rain = 0
KUM1 202300Z 20015KT 36/11 A3007 RMK A01 T03600110  RH  022%=      5-min Rain = 0
KUM1 202301Z 18016KT 36/11 A3007 RMK A01 T03600105  RH  021%=      5-min Rain = 0
KUM1 202302Z 17014KT 36/10 A3007 RMK A01 T03590102  RH  021%=      5-min Rain = 0
KUM1 202303Z 19010KT 36/10 A3007 RMK A01 T03580104  RH  021%=      5-min Rain = 0
KUM1 202304Z 19013G18KT 36/11 A3007 RMK A01 T03610106  RH  021%=      5-min Rain = 0
KUM1 202305Z 19015KT 36/10 A3007 RMK A01 T03630097  RH  020%=      5-min Rain = 0
KUM1 202306Z 18013KT 36/09 A3007 RMK A01 T03600093  RH  020%=      5-min Rain = 0
KUM1 202307Z 19016KT 36/10 A3007 RMK A01 T03590098  RH  020%=      5-min Rain = 0
KUM1 202308Z 21015KT 36/10 A3007 RMK A01 T03590103  RH  021%=      5-min Rain = 0
KUM1 202309Z 20013KT 36/11 A3007 RMK A01 T03580105  RH  022%=      5-min Rain = 0
KUM1 202310Z 21013KT 36/11 A3007 RMK A01 T03560106  RH  022%=      5-min Rain = 0
KUM1 202311Z 20013KT 36/11 A3007 RMK A01 T03560110  RH  023%=      5-min Rain = 0
KUM1 202312Z 19018KT 36/11 A3007 RMK A01 T03570113  RH  023%=      5-min Rain = 0
KUM1 202313Z 19016KT 36/11 A3007 RMK A01 T03570111  RH  023%=      5-min Rain = 0
KUM1 202314Z 20014KT 36/11 A3007 RMK A01 T03570109  RH  022%=      5-min Rain = 0
KUM1 202315Z 19015KT 36/11 A3007 RMK A01 T03560108  RH  022%=      5-min Rain = 0
KUM1 202316Z 19013KT 36/11 A3007 RMK A01 T03550106  RH  022%=      5-min Rain = 0
KUM1 202317Z 19014KT 35/11 A3007 RMK A01 T03540106  RH  022%=      5-min Rain = 0
KUM1 202318Z 18016KT 36/11 A3007 RMK A01 T03560107  RH  022%=      5-min Rain = 0
KUM1 202319Z 19013KT 36/11 A3007 RMK A01 T03570106  RH  022%=      5-min Rain = 0
KUM1 202320Z 20014KT 36/10 A3008 RMK A01 T03580102  RH  021%=      5-min Rain = 0
KUM1 202321Z 19012KT 36/11 A3008 RMK A01 T03600106  RH  022%=      5-min Rain = 0
KUM1 202322Z 19011KT 36/11 A3008 RMK A01 T03580109  RH  022%=      5-min Rain = 0
KUM1 202323Z 20010KT 36/11 A3008 RMK A01 T03550109  RH  023%=      5-min Rain = 0
KUM1 202324Z 22010KT 36/11 A3008 RMK A01 T03550108  RH  022%=      5-min Rain = 0
KUM1 202325Z 20011KT 36/11 A3008 RMK A01 T03560109  RH  022%=      5-min Rain = 0
KUM1 202326Z 20012KT 36/11 A3008 RMK A01 T03570108  RH  022%=      5-min Rain = 0
KUM1 202327Z 20013G18KT 36/11 A3008 RMK A01 T03590108  RH  022%=      5-min Rain = 0
KUM1 202328Z 21015KT 36/11 A3008 RMK A01 T03590105  RH  021%=      5-min Rain = 0
KUM1 202329Z 21015KT 36/11 A3008 RMK A01 T03560107  RH  022%=      5-min Rain = 0
KUM1 202330Z 21013KT 35/11 A3008 RMK A01 T03540106  RH  022%=      5-min Rain = 0
KUM1 202331Z 21015KT 35/11 A3008 RMK A01 T03530107  RH  022%=      5-min Rain = 0
KUM1 202332Z 21015KT 35/11 A3008 RMK A01 T03510109  RH  023%=      5-min Rain = 0
KUM1 202333Z 20015KT 35/11 A3008 RMK A01 T03500109  RH  023%=      5-min Rain = 0
KUM1 202334Z 20012KT 35/11 A3008 RMK A01 T03500109  RH  023%=      5-min Rain = 0
KUM1 202335Z 21013KT 35/11 A3008 RMK A01 T03500112  RH  024%=      5-min Rain = 0
KUM1 202336Z 21015KT 35/11 A3008 RMK A01 T03510114  RH  024%=      5-min Rain = 0
KUM1 202337Z 21016KT 35/12 A3008 RMK A01 T03520116  RH  024%=      5-min Rain = 0
KUM1 202338Z 19013KT 35/12 A3008 RMK A01 T03520116  RH  024%=      5-min Rain = 0
KUM1 202339Z 19015KT 35/11 A3008 RMK A01 T03530114  RH  024%=      5-min Rain = 0
KUM1 202340Z 20013KT 35/12 A3008 RMK A01 T03540115  RH  024%=      5-min Rain = 0
KUM1 202341Z 19012KT 35/12 A3008 RMK A01 T03540115  RH  024%=      5-min Rain = 0
KUM1 202342Z 20013KT 35/12 A3008 RMK A01 T03540115  RH  024%=      5-min Rain = 0
KUM1 202343Z 20013KT 35/12 A3008 RMK A01 T03540115  RH  024%=      5-min Rain = 0
KUM1 202344Z 19012KT 35/11 A3008 RMK A01 T03540113  RH  023%=      5-min Rain = 0
KUM1 202345Z 20011KT 35/11 A3008 RMK A01 T03540113  RH  023%=      5-min Rain = 0
KUM1 202346Z 19011KT 36/11 A3008 RMK A01 T03550114  RH  023%=      5-min Rain = 0
KUM1 202347Z 20014KT 36/11 A3008 RMK A01 T03560109  RH  022%=      5-min Rain = 0
KUM1 202348Z 18013KT 36/11 A3008 RMK A01 T03560106  RH  022%=      5-min Rain = 0
KUM1 202349Z 18013KT 36/11 A3008 RMK A01 T03550106  RH  022%=      5-min Rain = 0
KUM1 202350Z 18012KT 35/11 A3008 RMK A01 T03540107  RH  022%=      5-min Rain = 0
KUM1 202351Z 18010KT 35/11 A3008 RMK A01 T03530106  RH  022%=      5-min Rain = 0
KUM1 202352Z 18010KT 35/11 A3008 RMK A01 T03530105  RH  022%=      5-min Rain = 0
KUM1 202353Z 20012KT 35/11 A3008 RMK A01 T03530109  RH  023%=      5-min Rain = 0
KUM1 202354Z 20012KT 35/11 A3008 RMK A01 T03530112  RH  023%=      5-min Rain = 0
KUM1 202355Z 19013KT 35/11 A3008 RMK A01 T03520110  RH  023%=      5-min Rain = 0
KUM1 202356Z 17012KT 35/11 A3008 RMK A01 T03500109  RH  023%=      5-min Rain = 0
KUM1 202357Z 18013KT 35/11 A3008 RMK A01 T03500105  RH  023%=      5-min Rain = 0
KUM1 202358Z 18012KT 35/10 A3008 RMK A01 T03500103  RH  022%=      5-min Rain = 0
KUM1 202359Z 19010KT 35/11 A3008 RMK A01 T03500105  RH  023%=      5-min Rain = 0
KUM1 210000Z 17012KT 35/11 A3008 RMK A01 T03500108  RH  023%=      5-min Rain = 0
KUM1 210001Z 18014KT 35/11 A3008 RMK A01 T03500109  RH  023%=      5-min Rain = 0
KUM1 210002Z 18012KT 35/11 A3008 RMK A01 T03500110  RH  023%=      5-min Rain = 0
KUM1 210003Z 19011KT 35/11 A3009 RMK A01 T03490111  RH  024%=      5-min Rain = 0
KUM1 210004Z 20012KT 35/11 A3008 RMK A01 T03500111  RH  024%=      5-min Rain = 0
KUM1 210005Z 20010KT 35/11 A3008 RMK A01 T03500111  RH  024%=      5-min Rain = 0
KUM1 210006Z 20010KT 35/11 A3009 RMK A01 T03490111  RH  024%=      5-min Rain = 0
KUM1 210007Z 20010KT 35/11 A3009 RMK A01 T03480109  RH  023%=      5-min Rain = 0
KUM1 210008Z 20011KT 35/11 A3008 RMK A01 T03470105  RH  023%=      5-min Rain = 0
KUM1 210009Z 20012KT 35/11 A3008 RMK A01 T03460106  RH  023%=      5-min Rain = 0
KUM1 210010Z 21011KT 35/11 A3008 RMK A01 T03450110  RH  024%=      5-min Rain = 0
KUM1 210011Z 21010KT 34/11 A3009 RMK A01 T03440113  RH  025%=      5-min Rain = 0
KUM1 210012Z 21009KT 34/11 A3009 RMK A01 T03430113  RH  025%=      5-min Rain = 0
KUM1 210013Z 21010KT 34/11 A3008 RMK A01 T03410113  RH  025%=      5-min Rain = 0
KUM1 210014Z 21011KT 34/12 A3008 RMK A01 T03390116  RH  026%=      5-min Rain = 0
KUM1 210015Z 20011KT 34/12 A3008 RMK A01 T03380118  RH  026%=      5-min Rain = 0
KUM1 210016Z 19010KT 34/12 A3008 RMK A01 T03380118  RH  026%=      5-min Rain = 0
KUM1 210017Z 19011KT 34/12 A3008 RMK A01 T03370119  RH  027%=      5-min Rain = 0
KUM1 210018Z 19012KT 34/12 A3008 RMK A01 T03370120  RH  027%=      5-min Rain = 0
KUM1 210019Z 18012KT 34/12 A3008 RMK A01 T03360120  RH  027%=      5-min Rain = 0
KUM1 210020Z 19011KT 34/12 A3008 RMK A01 T03360120  RH  027%=      5-min Rain = 0
KUM1 210021Z 18009KT 34/12 A3008 RMK A01 T03350120  RH  027%=      5-min Rain = 0
KUM1 210022Z 19009KT 34/12 A3008 RMK A01 T03350119  RH  027%=      5-min Rain = 0
KUM1 210023Z 19008KT 34/12 A3009 RMK A01 T03350118  RH  027%=      5-min Rain = 0
KUM1 210024Z 19010KT 34/12 A3009 RMK A01 T03350118  RH  027%=      5-min Rain = 0
KUM1 210025Z 19012KT 34/12 A3008 RMK A01 T03360119  RH  027%=      5-min Rain = 0
KUM1 210026Z 19010KT 34/12 A3008 RMK A01 T03360119  RH  027%=      5-min Rain = 0
KUM1 210027Z 19010KT 34/12 A3008 RMK A01 T03360119  RH  027%=      5-min Rain = 0
KUM1 210028Z 18011KT 34/12 A3008 RMK A01 T03350117  RH  026%=      5-min Rain = 0
KUM1 210029Z 19010KT 33/12 A3008 RMK A01 T03340115  RH  026%=      5-min Rain = 0
KUM1 210030Z 20011KT 33/12 A3008 RMK A01 T03340115  RH  026%=      5-min Rain = 0
KUM1 210031Z 20010KT 33/12 A3008 RMK A01 T03330115  RH  027%=      5-min Rain = 0
KUM1 210032Z 20012KT 33/12 A3008 RMK A01 T03320116  RH  027%=      5-min Rain = 0
KUM1 210033Z 20012KT 33/12 A3008 RMK A01 T03320117  RH  027%=      5-min Rain = 0
KUM1 210034Z 19011KT 33/12 A3008 RMK A01 T03320117  RH  027%=      5-min Rain = 0
KUM1 210035Z 19011KT 33/12 A3008 RMK A01 T03320118  RH  027%=      5-min Rain = 0
KUM1 210036Z 19010KT 33/12 A3008 RMK A01 T03310119  RH  027%=      5-min Rain = 0
KUM1 210037Z 19009KT 33/12 A3008 RMK A01 T03300119  RH  028%=      5-min Rain = 0
KUM1 210038Z 20010KT 33/12 A3008 RMK A01 T03290119  RH  028%=      5-min Rain = 0
KUM1 210039Z 19009KT 33/12 A3008 RMK A01 T03290118  RH  028%=      5-min Rain = 0
KUM1 210040Z 19009KT 33/12 A3008 RMK A01 T03280118  RH  028%=      5-min Rain = 0
KUM1 210041Z 20009KT 33/12 A3008 RMK A01 T03270117  RH  028%=      5-min Rain = 0
KUM1 210042Z 19010KT 33/12 A3008 RMK A01 T03270117  RH  028%=      5-min Rain = 0
KUM1 210043Z 19010KT 33/12 A3008 RMK A01 T03260117  RH  028%=      5-min Rain = 0
KUM1 210044Z 19009KT 33/12 A3008 RMK A01 T03260117  RH  028%=      5-min Rain = 0
KUM1 210045Z 19009KT 33/12 A3008 RMK A01 T03260118  RH  028%=      5-min Rain = 0
KUM1 210046Z 19009KT 33/12 A3008 RMK A01 T03250120  RH  029%=      5-min Rain = 0
KUM1 210047Z 19009KT 33/12 A3008 RMK A01 T03250123  RH  029%=      5-min Rain = 0
KUM1 210048Z 19008KT 32/12 A3009 RMK A01 T03240124  RH  029%=      5-min Rain = 0
KUM1 210049Z 19009KT 32/13 A3009 RMK A01 T03240125  RH  030%=      5-min Rain = 0
KUM1 210050Z 19009KT 32/13 A3009 RMK A01 T03230125  RH  030%=      5-min Rain = 0
KUM1 210051Z 19009KT 32/13 A3009 RMK A01 T03230126  RH  030%=      5-min Rain = 0
KUM1 210052Z 20009KT 32/13 A3009 RMK A01 T03220125  RH  030%=      5-min Rain = 0
KUM1 210053Z 20009KT 32/13 A3009 RMK A01 T03220126  RH  030%=      5-min Rain = 0
KUM1 210054Z 20011KT 32/13 A3009 RMK A01 T03220126  RH  030%=      5-min Rain = 0
KUM1 210055Z 19009KT 32/13 A3009 RMK A01 T03220126  RH  030%=      5-min Rain = 0
KUM1 210056Z 20010KT 32/13 A3009 RMK A01 T03220127  RH  030%=      5-min Rain = 0
KUM1 210057Z 20009KT 32/13 A3009 RMK A01 T03220127  RH  031%=      5-min Rain = 0
KUM1 210058Z 20008KT 32/13 A3009 RMK A01 T03210128  RH  031%=      5-min Rain = 0
KUM1 210059Z 20009KT 32/13 A3009 RMK A01 T03200128  RH  031%=      5-min Rain = 0
KUM1 210100Z 19009KT 32/13 A3009 RMK A01 T03190128  RH  031%=      5-min Rain = 0
KUM1 210101Z 20009KT 32/13 A3009 RMK A01 T03190128  RH  031%=      5-min Rain = 0
KUM1 210102Z 20008KT 32/13 A3009 RMK A01 T03180128  RH  032%=      5-min Rain = 0
KUM1 210103Z 20008KT 32/13 A3009 RMK A01 T03170128  RH  032%=      5-min Rain = 0
KUM1 210104Z 20008KT 32/13 A3009 RMK A01 T03160129  RH  032%=      5-min Rain = 0
KUM1 210105Z 20008KT 32/13 A3009 RMK A01 T03150129  RH  032%=      5-min Rain = 0
KUM1 210106Z 20008KT 32/13 A3009 RMK A01 T03150130  RH  032%=      5-min Rain = 0
KUM1 210107Z 20009KT 32/13 A3009 RMK A01 T03150131  RH  032%=      5-min Rain = 0
KUM1 210108Z 20009KT 32/13 A3009 RMK A01 T03150131  RH  033%=      5-min Rain = 0
KUM1 210109Z 20008KT 32/13 A3009 RMK A01 T03150131  RH  033%=      5-min Rain = 0
KUM1 210110Z 19009KT 32/13 A3009 RMK A01 T03150132  RH  033%=      5-min Rain = 0
KUM1 210111Z 20008KT 32/13 A3009 RMK A01 T03150132  RH  033%=      5-min Rain = 0
KUM1 210112Z 19009KT 31/13 A3009 RMK A01 T03140132  RH  033%=      5-min Rain = 0
KUM1 210113Z 19008KT 31/13 A3009 RMK A01 T03140132  RH  033%=      5-min Rain = 0
KUM1 210114Z 19009KT 31/13 A3009 RMK A01 T03140132  RH  033%=      5-min Rain = 0
KUM1 210115Z 19009KT 31/13 A3009 RMK A01 T03130133  RH  033%=      5-min Rain = 0
KUM1 210116Z 19009KT 31/13 A3009 RMK A01 T03130133  RH  033%=      5-min Rain = 0
KUM1 210117Z 19008KT 31/13 A3009 RMK A01 T03130132  RH  033%=      5-min Rain = 0
KUM1 210118Z 19008KT 31/13 A3009 RMK A01 T03120132  RH  033%=      5-min Rain = 0
KUM1 210119Z 19009KT 31/13 A3009 RMK A01 T03120132  RH  033%=      5-min Rain = 0
KUM1 210120Z 19009KT 31/13 A3009 RMK A01 T03110132  RH  033%=      5-min Rain = 0
KUM1 210121Z 19008KT 31/13 A3009 RMK A01 T03110132  RH  034%=      5-min Rain = 0
KUM1 210122Z 19008KT 31/13 A3009 RMK A01 T03100132  RH  034%=      5-min Rain = 0
KUM1 210123Z 19008KT 31/13 A3009 RMK A01 T03100132  RH  034%=      5-min Rain = 0
KUM1 210124Z 19007KT 31/13 A3009 RMK A01 T03090131  RH  034%=      5-min Rain = 0
KUM1 210125Z 19007KT 31/13 A3009 RMK A01 T03080131  RH  034%=      5-min Rain = 0
KUM1 210126Z 19007KT 31/13 A3009 RMK A01 T03070131  RH  034%=      5-min Rain = 0
KUM1 210127Z 19007KT 31/13 A3009 RMK A01 T03070131  RH  034%=      5-min Rain = 0
KUM1 210128Z 18007KT 31/13 A3009 RMK A01 T03060131  RH  034%=      5-min Rain = 0
KUM1 210129Z 18007KT 31/13 A3009 RMK A01 T03050131  RH  034%=      5-min Rain = 0
KUM1 210130Z 18007KT 30/13 A3009 RMK A01 T03040131  RH  035%=      5-min Rain = 0
KUM1 210131Z 18008KT 30/13 A3009 RMK A01 T03030131  RH  035%=      5-min Rain = 0
KUM1 210132Z 18007KT 30/13 A3009 RMK A01 T03030131  RH  035%=      5-min Rain = 0
KUM1 210133Z 18007KT 30/13 A3009 RMK A01 T03030132  RH  035%=      5-min Rain = 0
KUM1 210134Z 18007KT 30/13 A3009 RMK A01 T03030132  RH  035%=      5-min Rain = 0
KUM1 210135Z 18007KT 30/13 A3009 RMK A01 T03030132  RH  035%=      5-min Rain = 0
KUM1 210136Z 18007KT 30/13 A3009 RMK A01 T03020132  RH  035%=      5-min Rain = 0
KUM1 210137Z 18007KT 30/13 A301 RMK A01 T03020132  RH  035%=      5-min Rain = 0
KUM1 210138Z 18007KT 30/13 A301 RMK A01 T03020132  RH  035%=      5-min Rain = 0
KUM1 210139Z 18007KT 30/13 A301 RMK A01 T03020133  RH  035%=      5-min Rain = 0
KUM1 210140Z 18007KT 30/13 A301 RMK A01 T03030133  RH  035%=      5-min Rain = 0
KUM1 210141Z 18007KT 30/13 A301 RMK A01 T03040133  RH  035%=      5-min Rain = 0
KUM1 210142Z 17007KT 30/13 A301 RMK A01 T03040132  RH  035%=      5-min Rain = 0
KUM1 210143Z 17007KT 30/13 A301 RMK A01 T03040133  RH  035%=      5-min Rain = 0
KUM1 210144Z 17007KT 31/13 A301 RMK A01 T03050133  RH  035%=      5-min Rain = 0
KUM1 210145Z 17007KT 30/13 A301 RMK A01 T03040133  RH  035%=      5-min Rain = 0
KUM1 210146Z 17007KT 30/13 A301 RMK A01 T03040133  RH  035%=      5-min Rain = 0
KUM1 210147Z 17007KT 30/13 A301 RMK A01 T03040134  RH  035%=      5-min Rain = 0
KUM1 210148Z 17007KT 30/13 A301 RMK A01 T03030134  RH  036%=      5-min Rain = 0
KUM1 210149Z 17007KT 30/13 A301 RMK A01 T03030134  RH  036%=      5-min Rain = 0
KUM1 210150Z 17008KT 30/13 A301 RMK A01 T03020134  RH  036%=      5-min Rain = 0
KUM1 210151Z 17007KT 30/13 A301 RMK A01 T03020134  RH  036%=      5-min Rain = 0
KUM1 210152Z 17007KT 30/13 A301 RMK A01 T03010134  RH  036%=      5-min Rain = 0
KUM1 210153Z 17008KT 30/13 A301 RMK A01 T03010134  RH  036%=      5-min Rain = 0
KUM1 210154Z 17007KT 30/13 A301 RMK A01 T03010134  RH  036%=      5-min Rain = 0
KUM1 210155Z 16007KT 30/14 A301 RMK A01 T03010135  RH  036%=      5-min Rain = 0
KUM1 210156Z 16007KT 30/13 A301 RMK A01 T03000134  RH  036%=      5-min Rain = 0
KUM1 210157Z 16007KT 30/14 A301 RMK A01 T03000135  RH  036%=      5-min Rain = 0
KUM1 210158Z 16007KT 30/14 A301 RMK A01 T03000135  RH  036%=      5-min Rain = 0
KUM1 210159Z 16006KT 30/14 A301 RMK A01 T02990135  RH  036%=      5-min Rain = 0
KUM1 210200Z 16007KT 30/14 A301 RMK A01 T02990135  RH  037%=      5-min Rain = 0
KUM1 210201Z 16007KT 30/14 A301 RMK A01 T02990135  RH  037%=      5-min Rain = 0
KUM1 210202Z 16007KT 30/14 A301 RMK A01 T02990136  RH  037%=      5-min Rain = 0
KUM1 210203Z 16007KT 30/14 A301 RMK A01 T02980135  RH  037%=      5-min Rain = 0
KUM1 210204Z 16007KT 30/14 A301 RMK A01 T02980136  RH  037%=      5-min Rain = 0
KUM1 210205Z 16007KT 30/14 A301 RMK A01 T02980136  RH  037%=      5-min Rain = 0
KUM1 210206Z 16007KT 30/14 A301 RMK A01 T02980136  RH  037%=      5-min Rain = 0
KUM1 210207Z 16007KT 30/14 A301 RMK A01 T02980136  RH  037%=      5-min Rain = 0
KUM1 210208Z 15007KT 30/14 A301 RMK A01 T02980136  RH  037%=      5-min Rain = 0
KUM1 210209Z 15008KT 30/14 A301 RMK A01 T02980136  RH  037%=      5-min Rain = 0
KUM1 210210Z 15008KT 30/14 A301 RMK A01 T02980136  RH  037%=      5-min Rain = 0
KUM1 210211Z 15008KT 30/14 A301 RMK A01 T02980136  RH  037%=      5-min Rain = 0
KUM1 210212Z 15007KT 30/14 A301 RMK A01 T02970136  RH  037%=      5-min Rain = 0
KUM1 210213Z 15007KT 30/14 A301 RMK A01 T02960136  RH  037%=      5-min Rain = 0
KUM1 210214Z 15008KT 30/14 A301 RMK A01 T02960135  RH  037%=      5-min Rain = 0
KUM1 210215Z 15008KT 29/14 A301 RMK A01 T02940135  RH  038%=      5-min Rain = 0
KUM1 210216Z 15008KT 29/14 A301 RMK A01 T02940135  RH  038%=      5-min Rain = 0
KUM1 210217Z 15009KT 29/14 A301 RMK A01 T02930135  RH  038%=      5-min Rain = 0
KUM1 210218Z 15008KT 29/14 A301 RMK A01 T02930135  RH  038%=      5-min Rain = 0
KUM1 210219Z 16008KT 29/14 A301 RMK A01 T02930135  RH  038%=      5-min Rain = 0
KUM1 210220Z 15008KT 29/14 A301 RMK A01 T02930136  RH  038%=      5-min Rain = 0
KUM1 210221Z 16008KT 29/14 A301 RMK A01 T02930136  RH  038%=      5-min Rain = 0
KUM1 210222Z 16008KT 29/14 A301 RMK A01 T02930136  RH  038%=      5-min Rain = 0
KUM1 210223Z 16008KT 29/14 A301 RMK A01 T02930136  RH  038%=      5-min Rain = 0
KUM1 210224Z 16008KT 29/14 A301 RMK A01 T02930136  RH  038%=      5-min Rain = 0
KUM1 210225Z 16008KT 29/14 A301 RMK A01 T02930136  RH  038%=      5-min Rain = 0
KUM1 210226Z 16008KT 29/14 A301 RMK A01 T02910135  RH  038%=      5-min Rain = 0
KUM1 210227Z 17008KT 29/14 A301 RMK A01 T02910135  RH  038%=      5-min Rain = 0
KUM1 210228Z 17008KT 29/14 A301 RMK A01 T02900135  RH  039%=      5-min Rain = 0
KUM1 210229Z 17008KT 29/14 A301 RMK A01 T02890135  RH  039%=      5-min Rain = 0
KUM1 210230Z 17008KT 29/14 A301 RMK A01 T02880135  RH  039%=      5-min Rain = 0
KUM1 210231Z 17008KT 29/14 A301 RMK A01 T02880135  RH  039%=      5-min Rain = 0
KUM1 210232Z 17008KT 29/14 A301 RMK A01 T02880135  RH  039%=      5-min Rain = 0
KUM1 210233Z 17008KT 29/14 A301 RMK A01 T02880135  RH  039%=      5-min Rain = 0
KUM1 210234Z 17008KT 29/14 A301 RMK A01 T02880135  RH  039%=      5-min Rain = 0
KUM1 210235Z 16008KT 29/14 A301 RMK A01 T02870135  RH  039%=      5-min Rain = 0
KUM1 210236Z 16008KT 29/14 A301 RMK A01 T02870135  RH  039%=      5-min Rain = 0
KUM1 210237Z 16008KT 29/14 A301 RMK A01 T02870135  RH  039%=      5-min Rain = 0
KUM1 210238Z 16008KT 29/13 A301 RMK A01 T02870134  RH  039%=      5-min Rain = 0
KUM1 210239Z 16008KT 29/13 A301 RMK A01 T02860134  RH  039%=      5-min Rain = 0
KUM1 210240Z 15007KT 29/13 A301 RMK A01 T02850134  RH  039%=      5-min Rain = 0
KUM1 210241Z 15008KT 28/13 A301 RMK A01 T02840133  RH  039%=      5-min Rain = 0
KUM1 210242Z 15008KT 28/13 A301 RMK A01 T02840133  RH  040%=      5-min Rain = 0
KUM1 210243Z 15008KT 28/13 A301 RMK A01 T02830133  RH  040%=      5-min Rain = 0
KUM1 210244Z 15008KT 28/13 A301 RMK A01 T02830134  RH  040%=      5-min Rain = 0
KUM1 210245Z 15008KT 28/13 A301 RMK A01 T02820133  RH  040%=      5-min Rain = 0
KUM1 210246Z 15008KT 28/13 A301 RMK A01 T02800132  RH  040%=      5-min Rain = 0
KUM1 210247Z 14008KT 28/13 A301 RMK A01 T02790133  RH  040%=      5-min Rain = 0
KUM1 210248Z 14007KT 28/13 A301 RMK A01 T02780132  RH  041%=      5-min Rain = 0
KUM1 210249Z 13007KT 28/13 A301 RMK A01 T02770132  RH  041%=      5-min Rain = 0
KUM1 210250Z 13007KT 28/13 A301 RMK A01 T02770132  RH  041%=      5-min Rain = 0
KUM1 210251Z 13007KT 28/13 A301 RMK A01 T02760132  RH  041%=      5-min Rain = 0
KUM1 210252Z 12007KT 28/13 A3011 RMK A01 T02760131  RH  041%=      5-min Rain = 0
KUM1 210253Z 12006KT 28/13 A3011 RMK A01 T02750131  RH  041%=      5-min Rain = 0
KUM1 210254Z 13007KT 28/13 A3011 RMK A01 T02750131  RH  041%=      5-min Rain = 0
KUM1 210255Z 13007KT 27/13 A3011 RMK A01 T02740131  RH  041%=      5-min Rain = 0
KUM1 210256Z 13007KT 27/13 A3011 RMK A01 T02730130  RH  041%=      5-min Rain = 0
KUM1 210257Z 13007KT 27/13 A3011 RMK A01 T02720129  RH  041%=      5-min Rain = 0
KUM1 210258Z 13007KT 27/13 A3011 RMK A01 T02710128  RH  041%=      5-min Rain = 0
KUM1 210259Z 14007KT 27/13 A3011 RMK A01 T02700128  RH  041%=      5-min Rain = 0
KUM1 210300Z 14007KT 27/13 A3011 RMK A01 T02690127  RH  041%=      5-min Rain = 0
KUM1 210301Z 14007KT 27/13 A3011 RMK A01 T02690126  RH  041%=      5-min Rain = 0
KUM1 210302Z 14008KT 27/13 A3011 RMK A01 T02690126  RH  041%=      5-min Rain = 0
KUM1 210303Z 14007KT 27/13 A3011 RMK A01 T02690125  RH  041%=      5-min Rain = 0
KUM1 210304Z 14008KT 27/13 A3011 RMK A01 T02690125  RH  041%=      5-min Rain = 0
KUM1 210305Z 15008KT 27/12 A3011 RMK A01 T02690124  RH  041%=      5-min Rain = 0
KUM1 210306Z 15007KT 27/12 A3011 RMK A01 T02690124  RH  041%=      5-min Rain = 0
KUM1 210307Z 15008KT 27/12 A3011 RMK A01 T02690124  RH  041%=      5-min Rain = 0
KUM1 210308Z 15008KT 27/12 A301 RMK A01 T02690124  RH  041%=      5-min Rain = 0
KUM1 210309Z 15008KT 27/12 A301 RMK A01 T02700124  RH  040%=      5-min Rain = 0
KUM1 210310Z 16007KT 27/12 A301 RMK A01 T02710124  RH  040%=      5-min Rain = 0
KUM1 210311Z 16008KT 27/12 A301 RMK A01 T02720124  RH  040%=      5-min Rain = 0
KUM1 210312Z 16008KT 27/12 A301 RMK A01 T02720124  RH  040%=      5-min Rain = 0
KUM1 210313Z 16008KT 27/12 A3011 RMK A01 T02720124  RH  040%=      5-min Rain = 0
KUM1 210314Z 16009KT 27/12 A3011 RMK A01 T02720124  RH  040%=      5-min Rain = 0
KUM1 210315Z 16009KT 27/13 A3011 RMK A01 T02710125  RH  040%=      5-min Rain = 0
KUM1 210316Z 16009KT 27/13 A3011 RMK A01 T02700125  RH  041%=      5-min Rain = 0
KUM1 210317Z 16008KT 27/13 A3011 RMK A01 T02700126  RH  041%=      5-min Rain = 0
KUM1 210318Z 16009KT 27/13 A3011 RMK A01 T02700126  RH  041%=      5-min Rain = 0
KUM1 210319Z 16009KT 27/13 A3011 RMK A01 T02700126  RH  041%=      5-min Rain = 0
KUM1 210320Z 16008KT 27/13 A3011 RMK A01 T02700127  RH  041%=      5-min Rain = 0
KUM1 210321Z 17008KT 27/13 A3011 RMK A01 T02700126  RH  041%=      5-min Rain = 0
KUM1 210322Z 17008KT 27/13 A3011 RMK A01 T02700127  RH  041%=      5-min Rain = 0
KUM1 210323Z 17008KT 27/13 A3011 RMK A01 T02700126  RH  041%=      5-min Rain = 0
KUM1 210324Z 17007KT 27/13 A3011 RMK A01 T02690126  RH  041%=      5-min Rain = 0
KUM1 210325Z 17008KT 27/13 A3011 RMK A01 T02680126  RH  041%=      5-min Rain = 0
KUM1 210326Z 17007KT 27/13 A3011 RMK A01 T02670126  RH  042%=      5-min Rain = 0
KUM1 210327Z 17008KT 27/13 A3011 RMK A01 T02660126  RH  042%=      5-min Rain = 0
KUM1 210328Z 17008KT 27/13 A3011 RMK A01 T02660126  RH  042%=      5-min Rain = 0
KUM1 210329Z 17007KT 27/13 A3011 RMK A01 T02650126  RH  042%=      5-min Rain = 0
KUM1 210330Z 17007KT 26/13 A3011 RMK A01 T02640126  RH  042%=      5-min Rain = 0
KUM1 210331Z 17007KT 26/13 A3011 RMK A01 T02640126  RH  042%=      5-min Rain = 0
KUM1 210332Z 17007KT 26/13 A3011 RMK A01 T02630126  RH  043%=      5-min Rain = 0
KUM1 210333Z 17007KT 26/13 A3011 RMK A01 T02620125  RH  043%=      5-min Rain = 0
KUM1 210334Z 17007KT 26/13 A3011 RMK A01 T02620126  RH  043%=      5-min Rain = 0
KUM1 210335Z 16008KT 26/13 A3011 RMK A01 T02620126  RH  043%=      5-min Rain = 0
KUM1 210336Z 14008KT 26/13 A3011 RMK A01 T02620126  RH  043%=      5-min Rain = 0
KUM1 210337Z 12008KT 26/13 A3011 RMK A01 T02620126  RH  043%=      5-min Rain = 0
KUM1 210338Z 13007KT 26/13 A3011 RMK A01 T02620126  RH  043%=      5-min Rain = 0
KUM1 210339Z 13008KT 26/13 A3011 RMK A01 T02620126  RH  043%=      5-min Rain = 0
KUM1 210340Z 13010KT 26/13 A3011 RMK A01 T02620126  RH  043%=      5-min Rain = 0
KUM1 210341Z 14011KT 26/13 A3011 RMK A01 T02630126  RH  042%=      5-min Rain = 0
KUM1 210342Z 15010KT 27/13 A3011 RMK A01 T02660126  RH  042%=      5-min Rain = 0
KUM1 210343Z 15012G17KT 27/13 A3011 RMK A01 T02690126  RH  041%=      5-min Rain = 0
KUM1 210344Z 15010KT 27/13 A3011 RMK A01 T02710127  RH  041%=      5-min Rain = 0
KUM1 210345Z 15011KT 27/13 A3011 RMK A01 T02730127  RH  041%=      5-min Rain = 0
KUM1 210346Z 16011KT 28/13 A3011 RMK A01 T02750129  RH  040%=      5-min Rain = 0
KUM1 210347Z 16011KT 28/13 A3011 RMK A01 T02790130  RH  040%=      5-min Rain = 0
KUM1 210348Z 16011KT 28/13 A3011 RMK A01 T02810130  RH  039%=      5-min Rain = 0
KUM1 210349Z 16010KT 28/13 A3011 RMK A01 T02820129  RH  039%=      5-min Rain = 0
KUM1 210350Z 16010KT 28/13 A3011 RMK A01 T02820129  RH  039%=      5-min Rain = 0
KUM1 210351Z 15010KT 28/13 A3011 RMK A01 T02820129  RH  039%=      5-min Rain = 0
KUM1 210352Z 15010KT 28/13 A3011 RMK A01 T02820129  RH  039%=      5-min Rain = 0
KUM1 210353Z 15009KT 28/13 A3011 RMK A01 T02810129  RH  039%=      5-min Rain = 0
KUM1 210354Z 15009KT 28/13 A3011 RMK A01 T02800129  RH  039%=      5-min Rain = 0
KUM1 210355Z 15010KT 28/13 A3011 RMK A01 T02790129  RH  039%=      5-min Rain = 0
KUM1 210356Z 16009KT 28/13 A3011 RMK A01 T02790129  RH  040%=      5-min Rain = 0
KUM1 210357Z 16009KT 28/13 A3011 RMK A01 T02790129  RH  040%=      5-min Rain = 0
KUM1 210358Z 16009KT 28/13 A3011 RMK A01 T02780129  RH  040%=      5-min Rain = 0
KUM1 210359Z 15009KT 28/13 A3011 RMK A01 T02780129  RH  040%=      5-min Rain = 0
KUM1 210400Z 15008KT 28/13 A3011 RMK A01 T02770129  RH  040%=      5-min Rain = 0
KUM1 210401Z 15008KT 28/13 A3011 RMK A01 T02770129  RH  040%=      5-min Rain = 0
KUM1 210402Z 15009KT 28/13 A3011 RMK A01 T02760129  RH  040%=      5-min Rain = 0
KUM1 210403Z 16009KT 28/13 A3011 RMK A01 T02750129  RH  040%=      5-min Rain = 0
KUM1 210404Z 16008KT 27/13 A3011 RMK A01 T02740129  RH  041%=      5-min Rain = 0
KUM1 210405Z 16008KT 27/13 A3011 RMK A01 T02740129  RH  041%=      5-min Rain = 0
KUM1 210406Z 16008KT 27/13 A3012 RMK A01 T02740128  RH  041%=      5-min Rain = 0
KUM1 210407Z 16008KT 27/13 A3012 RMK A01 T02730128  RH  041%=      5-min Rain = 0
KUM1 210408Z 16008KT 27/13 A3012 RMK A01 T02730128  RH  041%=      5-min Rain = 0
KUM1 210409Z 17007KT 27/13 A3012 RMK A01 T02730129  RH  041%=      5-min Rain = 0
KUM1 210410Z 17007KT 27/13 A3012 RMK A01 T02730128  RH  041%=      5-min Rain = 0
KUM1 210411Z 17006KT 27/13 A3012 RMK A01 T02730129  RH  041%=      5-min Rain = 0
KUM1 210412Z 18006KT 27/13 A3012 RMK A01 T02730130  RH  041%=      5-min Rain = 0
KUM1 210413Z 18004KT 27/13 A3012 RMK A01 T02720129  RH  041%=      5-min Rain = 0
KUM1 210414Z 20005KT 27/13 A3013 RMK A01 T02720129  RH  041%=      5-min Rain = 0
KUM1 210415Z 22003KT 27/13 A3013 RMK A01 T02720130  RH  041%=      5-min Rain = 0
KUM1 210416Z 28005KT 27/13 A3013 RMK A01 T02720129  RH  041%=      5-min Rain = 0
KUM1 210417Z 30007KT 27/13 A3013 RMK A01 T02710129  RH  042%=      5-min Rain = 0
KUM1 210418Z 30007KT 27/13 A3013 RMK A01 T02670128  RH  042%=      5-min Rain = 0
KUM1 210419Z 30007KT 27/13 A3013 RMK A01 T02650128  RH  043%=      5-min Rain = 0
KUM1 210420Z 30006KT 26/13 A3013 RMK A01 T02630127  RH  043%=      5-min Rain = 0
KUM1 210421Z 30007KT 26/13 A3013 RMK A01 T02620127  RH  043%=      5-min Rain = 0
KUM1 210422Z 30007KT 26/13 A3013 RMK A01 T02620129  RH  044%=      5-min Rain = 0
KUM1 210423Z 31007KT 26/13 A3013 RMK A01 T02620129  RH  044%=      5-min Rain = 0
KUM1 210424Z 31006KT 26/13 A3013 RMK A01 T02620129  RH  044%=      5-min Rain = 0
KUM1 210425Z 31005KT 26/13 A3013 RMK A01 T02630129  RH  044%=      5-min Rain = 0
KUM1 210426Z 30004KT 26/13 A3013 RMK A01 T02640130  RH  043%=      5-min Rain = 0
KUM1 210427Z 29006KT 27/13 A3013 RMK A01 T02650129  RH  043%=      5-min Rain = 0
KUM1 210428Z 29010KT 27/13 A3013 RMK A01 T02660130  RH  043%=      5-min Rain = 0
KUM1 210429Z 29009KT 27/13 A3013 RMK A01 T02710131  RH  042%=      5-min Rain = 0
KUM1 210430Z 29008KT 28/13 A3013 RMK A01 T02760131  RH  041%=      5-min Rain = 0
KUM1 210431Z 28009G15KT 28/13 A3013 RMK A01 T02790130  RH  040%=      5-min Rain = 0
KUM1 210432Z 26011G20KT 28/13 A3013 RMK A01 T02830130  RH  039%=      5-min Rain = 0
KUM1 210433Z 27003KT 29/13 A3014 RMK A01 T02890130  RH  038%=      5-min Rain = 0
KUM1 210434Z 25005KT 29/13 A3014 RMK A01 T02900129  RH  037%=      5-min Rain = 0
KUM1 210435Z 23004KT 29/13 A3014 RMK A01 T02900130  RH  037%=      5-min Rain = 0
KUM1 210436Z 21003KT 29/13 A3014 RMK A01 T02900129  RH  037%=      5-min Rain = 0
KUM1 210437Z 21007KT 29/13 A3014 RMK A01 T02900129  RH  037%=      5-min Rain = 0
KUM1 210438Z 22009KT 29/13 A3014 RMK A01 T02900129  RH  037%=      5-min Rain = 0
KUM1 210439Z 23006KT 29/13 A3014 RMK A01 T02900130  RH  037%=      5-min Rain = 0
KUM1 210440Z 23004KT 29/13 A3014 RMK A01 T02890130  RH  038%=      5-min Rain = 0
KUM1 210441Z 21003KT 29/13 A3014 RMK A01 T02880130  RH  038%=      5-min Rain = 0
KUM1 210442Z 23004KT 29/13 A3014 RMK A01 T02870129  RH  038%=      5-min Rain = 0
KUM1 210443Z 23008KT 29/13 A3014 RMK A01 T02860130  RH  038%=      5-min Rain = 0
KUM1 210444Z 21010KT 29/13 A3014 RMK A01 T02860130  RH  038%=      5-min Rain = 0
KUM1 210445Z 24009KT 28/13 A3014 RMK A01 T02840131  RH  039%=      5-min Rain = 0
KUM1 210446Z 25007KT 28/13 A3014 RMK A01 T02830130  RH  039%=      5-min Rain = 0
KUM1 210447Z 24007KT 28/13 A3014 RMK A01 T02830131  RH  039%=      5-min Rain = 0
KUM1 210448Z 25006KT 28/13 A3013 RMK A01 T02830131  RH  039%=      5-min Rain = 0
KUM1 210449Z 24006KT 28/13 A3013 RMK A01 T02820131  RH  039%=      5-min Rain = 0
KUM1 210450Z 22005KT 28/13 A3013 RMK A01 T02810131  RH  040%=      5-min Rain = 0
KUM1 210451Z 23005KT 28/13 A3013 RMK A01 T02810131  RH  040%=      5-min Rain = 0
KUM1 210452Z 22005KT 28/13 A3014 RMK A01 T02810131  RH  040%=      5-min Rain = 0
KUM1 210453Z 20005KT 28/13 A3014 RMK A01 T02800132  RH  040%=      5-min Rain = 0
KUM1 210454Z 20006KT 28/13 A3014 RMK A01 T02780132  RH  040%=      5-min Rain = 0
KUM1 210455Z 20006KT 28/13 A3014 RMK A01 T02770131  RH  041%=      5-min Rain = 0
KUM1 210456Z 21005KT 28/13 A3014 RMK A01 T02760130  RH  040%=      5-min Rain = 0
KUM1 210457Z 20006KT 28/13 A3014 RMK A01 T02770130  RH  040%=      5-min Rain = 0
KUM1 210458Z 22009KT 28/13 A3014 RMK A01 T02790129  RH  040%=      5-min Rain = 0
KUM1 210459Z 21007KT 28/13 A3014 RMK A01 T02810130  RH  039%=      5-min Rain = 0

Page generated in 0.0719 seconds.